<?xml version="1.0" encoding="UTF-8" standalone="no" ?>
<gpx xmlns="http://www.topografix.com/GPX/1/1" xmlns:xsi="http://www.w3.org/2001/XMLSchema-instance" xsi:schemaLocation="http://www.topografix.com/GPX/1/1 http://www.topografix.com/GPX/1/1/gpx.xsd" version="1.1" creator="VisuGPX - https://www.visugpx.com">
  <metadata>
    <name>Grange-Liezey</name>
    <desc><![CDATA[Carte 3618 OT Le Honeck - Gérardmer
4h]]></desc>
  </metadata>
  <trk>
    <name><![CDATA[Grange-Liezey]]></name>
    <desc><![CDATA[Carte 3618 OT Le Honeck - Gérardmer
4h]]></desc>
    <trkseg>
      <trkpt lat="48.13418" lon="6.79239">
        <ele>501.71</ele>
        <time>2014-01-17T10:33:15Z</time>
      </trkpt>
      <trkpt lat="48.13418" lon="6.7924">
        <ele>501.71</ele>
        <time>2014-01-17T10:33:16Z</time>
      </trkpt>
      <trkpt lat="48.13419" lon="6.79243">
        <ele>502.11</ele>
        <time>2014-01-17T10:33:40Z</time>
      </trkpt>
      <trkpt lat="48.13416" lon="6.79246">
        <ele>502.61</ele>
        <time>2014-01-17T10:33:53Z</time>
      </trkpt>
      <trkpt lat="48.13415" lon="6.79245">
        <ele>502.42</ele>
        <time>2014-01-17T10:34:15Z</time>
      </trkpt>
      <trkpt lat="48.13416" lon="6.79244">
        <ele>502.12</ele>
        <time>2014-01-17T10:34:31Z</time>
      </trkpt>
      <trkpt lat="48.13418" lon="6.79246">
        <ele>502.14</ele>
        <time>2014-01-17T10:34:36Z</time>
      </trkpt>
      <trkpt lat="48.1342" lon="6.79248">
        <ele>502.29</ele>
        <time>2014-01-17T10:34:39Z</time>
      </trkpt>
      <trkpt lat="48.13425" lon="6.79249">
        <ele>502.37</ele>
        <time>2014-01-17T10:34:43Z</time>
      </trkpt>
      <trkpt lat="48.13428" lon="6.79249">
        <ele>502.34</ele>
        <time>2014-01-17T10:34:46Z</time>
      </trkpt>
      <trkpt lat="48.13435" lon="6.79259">
        <ele>502.19</ele>
        <time>2014-01-17T10:34:57Z</time>
      </trkpt>
      <trkpt lat="48.13436" lon="6.7926">
        <ele>502.03</ele>
        <time>2014-01-17T10:35:00Z</time>
      </trkpt>
      <trkpt lat="48.13438" lon="6.79264">
        <ele>501.98</ele>
        <time>2014-01-17T10:35:03Z</time>
      </trkpt>
      <trkpt lat="48.13442" lon="6.7929">
        <ele>502.29</ele>
        <time>2014-01-17T10:35:19Z</time>
      </trkpt>
      <trkpt lat="48.13445" lon="6.79296">
        <ele>502.35</ele>
        <time>2014-01-17T10:35:30Z</time>
      </trkpt>
      <trkpt lat="48.13446" lon="6.79299">
        <ele>502.31</ele>
        <time>2014-01-17T10:35:32Z</time>
      </trkpt>
      <trkpt lat="48.13454" lon="6.79349">
        <ele>503.09</ele>
        <time>2014-01-17T10:35:58Z</time>
      </trkpt>
      <trkpt lat="48.13446" lon="6.79379">
        <ele>504.05</ele>
        <time>2014-01-17T10:36:14Z</time>
      </trkpt>
      <trkpt lat="48.1343" lon="6.79421">
        <ele>504.26</ele>
        <time>2014-01-17T10:36:38Z</time>
      </trkpt>
      <trkpt lat="48.13427" lon="6.79468">
        <ele>504.75</ele>
        <time>2014-01-17T10:37:01Z</time>
      </trkpt>
      <trkpt lat="48.13434" lon="6.79494">
        <ele>504.04</ele>
        <time>2014-01-17T10:37:20Z</time>
      </trkpt>
      <trkpt lat="48.13434" lon="6.79497">
        <ele>503.96</ele>
        <time>2014-01-17T10:37:22Z</time>
      </trkpt>
      <trkpt lat="48.13446" lon="6.79536">
        <ele>503.97</ele>
        <time>2014-01-17T10:37:44Z</time>
      </trkpt>
      <trkpt lat="48.13458" lon="6.79578">
        <ele>503.77</ele>
        <time>2014-01-17T10:38:06Z</time>
      </trkpt>
      <trkpt lat="48.13465" lon="6.79617">
        <ele>503.38</ele>
        <time>2014-01-17T10:38:26Z</time>
      </trkpt>
      <trkpt lat="48.13474" lon="6.79658">
        <ele>504.02</ele>
        <time>2014-01-17T10:38:47Z</time>
      </trkpt>
      <trkpt lat="48.13475" lon="6.79664">
        <ele>504.09</ele>
        <time>2014-01-17T10:38:50Z</time>
      </trkpt>
      <trkpt lat="48.13476" lon="6.79674">
        <ele>504.22</ele>
        <time>2014-01-17T10:38:55Z</time>
      </trkpt>
      <trkpt lat="48.13478" lon="6.7971">
        <ele>504.6</ele>
        <time>2014-01-17T10:39:15Z</time>
      </trkpt>
      <trkpt lat="48.13477" lon="6.79711">
        <ele>505.41</ele>
        <time>2014-01-17T10:39:21Z</time>
      </trkpt>
      <trkpt lat="48.1348" lon="6.79708">
        <ele>505.7</ele>
        <time>2014-01-17T10:39:24Z</time>
      </trkpt>
      <trkpt lat="48.13486" lon="6.79706">
        <ele>505.47</ele>
        <time>2014-01-17T10:39:38Z</time>
      </trkpt>
      <trkpt lat="48.13485" lon="6.79707">
        <ele>505.48</ele>
        <time>2014-01-17T10:39:39Z</time>
      </trkpt>
      <trkpt lat="48.13461" lon="6.7972">
        <ele>507.45</ele>
        <time>2014-01-17T10:40:01Z</time>
      </trkpt>
      <trkpt lat="48.13446" lon="6.79729">
        <ele>509.39</ele>
        <time>2014-01-17T10:40:16Z</time>
      </trkpt>
      <trkpt lat="48.13427" lon="6.79758">
        <ele>512.37</ele>
        <time>2014-01-17T10:40:38Z</time>
      </trkpt>
      <trkpt lat="48.13424" lon="6.79762">
        <ele>512.9</ele>
        <time>2014-01-17T10:40:42Z</time>
      </trkpt>
      <trkpt lat="48.13402" lon="6.79773">
        <ele>515.32</ele>
        <time>2014-01-17T10:41:01Z</time>
      </trkpt>
      <trkpt lat="48.1338" lon="6.79781">
        <ele>517.11</ele>
        <time>2014-01-17T10:41:20Z</time>
      </trkpt>
      <trkpt lat="48.13361" lon="6.79786">
        <ele>519.08</ele>
        <time>2014-01-17T10:41:37Z</time>
      </trkpt>
      <trkpt lat="48.13356" lon="6.79785">
        <ele>519.6</ele>
        <time>2014-01-17T10:41:42Z</time>
      </trkpt>
      <trkpt lat="48.13339" lon="6.79787">
        <ele>521.69</ele>
        <time>2014-01-17T10:41:59Z</time>
      </trkpt>
      <trkpt lat="48.13321" lon="6.79787">
        <ele>523.77</ele>
        <time>2014-01-17T10:42:15Z</time>
      </trkpt>
      <trkpt lat="48.13299" lon="6.7979">
        <ele>525.91</ele>
        <time>2014-01-17T10:42:34Z</time>
      </trkpt>
      <trkpt lat="48.13282" lon="6.79795">
        <ele>527.93</ele>
        <time>2014-01-17T10:42:51Z</time>
      </trkpt>
      <trkpt lat="48.13272" lon="6.798">
        <ele>529.43</ele>
        <time>2014-01-17T10:43:03Z</time>
      </trkpt>
      <trkpt lat="48.1327" lon="6.79801">
        <ele>529.62</ele>
        <time>2014-01-17T10:43:05Z</time>
      </trkpt>
      <trkpt lat="48.13248" lon="6.79811">
        <ele>532.48</ele>
        <time>2014-01-17T10:43:26Z</time>
      </trkpt>
      <trkpt lat="48.13239" lon="6.79817">
        <ele>533.78</ele>
        <time>2014-01-17T10:43:42Z</time>
      </trkpt>
      <trkpt lat="48.13233" lon="6.79824">
        <ele>533.93</ele>
        <time>2014-01-17T10:44:00Z</time>
      </trkpt>
      <trkpt lat="48.13228" lon="6.79827">
        <ele>534.25</ele>
        <time>2014-01-17T10:44:05Z</time>
      </trkpt>
      <trkpt lat="48.13208" lon="6.79836">
        <ele>535.75</ele>
        <time>2014-01-17T10:44:22Z</time>
      </trkpt>
      <trkpt lat="48.13201" lon="6.79842">
        <ele>536.29</ele>
        <time>2014-01-17T10:44:38Z</time>
      </trkpt>
      <trkpt lat="48.132" lon="6.79844">
        <ele>536.3</ele>
        <time>2014-01-17T10:44:41Z</time>
      </trkpt>
      <trkpt lat="48.13194" lon="6.79849">
        <ele>536.56</ele>
        <time>2014-01-17T10:44:47Z</time>
      </trkpt>
      <trkpt lat="48.13173" lon="6.7986">
        <ele>537.9</ele>
        <time>2014-01-17T10:45:05Z</time>
      </trkpt>
      <trkpt lat="48.13146" lon="6.79876">
        <ele>539.52</ele>
        <time>2014-01-17T10:45:28Z</time>
      </trkpt>
      <trkpt lat="48.13127" lon="6.79887">
        <ele>541.66</ele>
        <time>2014-01-17T10:45:47Z</time>
      </trkpt>
      <trkpt lat="48.13113" lon="6.79893">
        <ele>543.25</ele>
        <time>2014-01-17T10:46:02Z</time>
      </trkpt>
      <trkpt lat="48.13109" lon="6.79895">
        <ele>543.96</ele>
        <time>2014-01-17T10:46:07Z</time>
      </trkpt>
      <trkpt lat="48.13095" lon="6.799">
        <ele>545.67</ele>
        <time>2014-01-17T10:46:22Z</time>
      </trkpt>
      <trkpt lat="48.13092" lon="6.79901">
        <ele>546.17</ele>
        <time>2014-01-17T10:46:25Z</time>
      </trkpt>
      <trkpt lat="48.1308" lon="6.79904">
        <ele>547.69</ele>
        <time>2014-01-17T10:46:39Z</time>
      </trkpt>
      <trkpt lat="48.13061" lon="6.79904">
        <ele>549.93</ele>
        <time>2014-01-17T10:46:59Z</time>
      </trkpt>
      <trkpt lat="48.13045" lon="6.79905">
        <ele>551.77</ele>
        <time>2014-01-17T10:47:22Z</time>
      </trkpt>
      <trkpt lat="48.13024" lon="6.79911">
        <ele>553.83</ele>
        <time>2014-01-17T10:47:47Z</time>
      </trkpt>
      <trkpt lat="48.13003" lon="6.79914">
        <ele>556.24</ele>
        <time>2014-01-17T10:48:11Z</time>
      </trkpt>
      <trkpt lat="48.12985" lon="6.79919">
        <ele>558.08</ele>
        <time>2014-01-17T10:48:32Z</time>
      </trkpt>
      <trkpt lat="48.12959" lon="6.79918">
        <ele>560.28</ele>
        <time>2014-01-17T10:48:54Z</time>
      </trkpt>
      <trkpt lat="48.12947" lon="6.79921">
        <ele>561.37</ele>
        <time>2014-01-17T10:49:08Z</time>
      </trkpt>
      <trkpt lat="48.12928" lon="6.79928">
        <ele>563.02</ele>
        <time>2014-01-17T10:49:28Z</time>
      </trkpt>
      <trkpt lat="48.12914" lon="6.79936">
        <ele>564.52</ele>
        <time>2014-01-17T10:49:46Z</time>
      </trkpt>
      <trkpt lat="48.12896" lon="6.79945">
        <ele>565.86</ele>
        <time>2014-01-17T10:50:03Z</time>
      </trkpt>
      <trkpt lat="48.12871" lon="6.7995">
        <ele>566.99</ele>
        <time>2014-01-17T10:50:26Z</time>
      </trkpt>
      <trkpt lat="48.12847" lon="6.79963">
        <ele>568.8</ele>
        <time>2014-01-17T10:50:47Z</time>
      </trkpt>
      <trkpt lat="48.12824" lon="6.79974">
        <ele>569.5</ele>
        <time>2014-01-17T10:51:06Z</time>
      </trkpt>
      <trkpt lat="48.12794" lon="6.79984">
        <ele>570.08</ele>
        <time>2014-01-17T10:51:29Z</time>
      </trkpt>
      <trkpt lat="48.12763" lon="6.79994">
        <ele>570.36</ele>
        <time>2014-01-17T10:51:51Z</time>
      </trkpt>
      <trkpt lat="48.12733" lon="6.79999">
        <ele>571.68</ele>
        <time>2014-01-17T10:52:11Z</time>
      </trkpt>
      <trkpt lat="48.12702" lon="6.80011">
        <ele>573.38</ele>
        <time>2014-01-17T10:52:33Z</time>
      </trkpt>
      <trkpt lat="48.12692" lon="6.80016">
        <ele>573.52</ele>
        <time>2014-01-17T10:52:41Z</time>
      </trkpt>
      <trkpt lat="48.12666" lon="6.80025">
        <ele>575.42</ele>
        <time>2014-01-17T10:53:05Z</time>
      </trkpt>
      <trkpt lat="48.12647" lon="6.80038">
        <ele>577.19</ele>
        <time>2014-01-17T10:53:25Z</time>
      </trkpt>
      <trkpt lat="48.12621" lon="6.80051">
        <ele>578.32</ele>
        <time>2014-01-17T10:53:50Z</time>
      </trkpt>
      <trkpt lat="48.12598" lon="6.80069">
        <ele>579.97</ele>
        <time>2014-01-17T10:54:11Z</time>
      </trkpt>
      <trkpt lat="48.1257" lon="6.80081">
        <ele>582.53</ele>
        <time>2014-01-17T10:54:33Z</time>
      </trkpt>
      <trkpt lat="48.12553" lon="6.80093">
        <ele>584.67</ele>
        <time>2014-01-17T10:54:53Z</time>
      </trkpt>
      <trkpt lat="48.12542" lon="6.80106">
        <ele>586.13</ele>
        <time>2014-01-17T10:55:06Z</time>
      </trkpt>
      <trkpt lat="48.12535" lon="6.80115">
        <ele>586.87</ele>
        <time>2014-01-17T10:55:14Z</time>
      </trkpt>
      <trkpt lat="48.12534" lon="6.80118">
        <ele>586.95</ele>
        <time>2014-01-17T10:55:16Z</time>
      </trkpt>
      <trkpt lat="48.12521" lon="6.8013">
        <ele>587.49</ele>
        <time>2014-01-17T10:55:29Z</time>
      </trkpt>
      <trkpt lat="48.12517" lon="6.80141">
        <ele>587.9</ele>
        <time>2014-01-17T10:55:36Z</time>
      </trkpt>
      <trkpt lat="48.12513" lon="6.8015">
        <ele>588.3</ele>
        <time>2014-01-17T10:55:42Z</time>
      </trkpt>
      <trkpt lat="48.1251" lon="6.80157">
        <ele>588.42</ele>
        <time>2014-01-17T10:55:46Z</time>
      </trkpt>
      <trkpt lat="48.12501" lon="6.80174">
        <ele>589.53</ele>
        <time>2014-01-17T10:56:01Z</time>
      </trkpt>
      <trkpt lat="48.12491" lon="6.80195">
        <ele>590.34</ele>
        <time>2014-01-17T10:56:14Z</time>
      </trkpt>
      <trkpt lat="48.12478" lon="6.80213">
        <ele>591.15</ele>
        <time>2014-01-17T10:56:27Z</time>
      </trkpt>
      <trkpt lat="48.12473" lon="6.80221">
        <ele>591.23</ele>
        <time>2014-01-17T10:56:33Z</time>
      </trkpt>
      <trkpt lat="48.1247" lon="6.80228">
        <ele>591.25</ele>
        <time>2014-01-17T10:56:38Z</time>
      </trkpt>
      <trkpt lat="48.12458" lon="6.80251">
        <ele>590.78</ele>
        <time>2014-01-17T10:56:54Z</time>
      </trkpt>
      <trkpt lat="48.12453" lon="6.80285">
        <ele>590.44</ele>
        <time>2014-01-17T10:57:10Z</time>
      </trkpt>
      <trkpt lat="48.12452" lon="6.80297">
        <ele>590.8</ele>
        <time>2014-01-17T10:57:33Z</time>
      </trkpt>
      <trkpt lat="48.12451" lon="6.80312">
        <ele>590.67</ele>
        <time>2014-01-17T10:58:07Z</time>
      </trkpt>
      <trkpt lat="48.12451" lon="6.80325">
        <ele>590.71</ele>
        <time>2014-01-17T10:58:31Z</time>
      </trkpt>
      <trkpt lat="48.12449" lon="6.80354">
        <ele>590.51</ele>
        <time>2014-01-17T10:58:52Z</time>
      </trkpt>
      <trkpt lat="48.12444" lon="6.8038">
        <ele>590.95</ele>
        <time>2014-01-17T10:59:11Z</time>
      </trkpt>
      <trkpt lat="48.12442" lon="6.80408">
        <ele>591.59</ele>
        <time>2014-01-17T10:59:25Z</time>
      </trkpt>
      <trkpt lat="48.12432" lon="6.80438">
        <ele>592.1</ele>
        <time>2014-01-17T10:59:44Z</time>
      </trkpt>
      <trkpt lat="48.1242" lon="6.80473">
        <ele>593.51</ele>
        <time>2014-01-17T11:00:07Z</time>
      </trkpt>
      <trkpt lat="48.12411" lon="6.8052">
        <ele>593.76</ele>
        <time>2014-01-17T11:00:30Z</time>
      </trkpt>
      <trkpt lat="48.12411" lon="6.80568">
        <ele>593.49</ele>
        <time>2014-01-17T11:00:54Z</time>
      </trkpt>
      <trkpt lat="48.12416" lon="6.80618">
        <ele>593.87</ele>
        <time>2014-01-17T11:01:17Z</time>
      </trkpt>
      <trkpt lat="48.12411" lon="6.80655">
        <ele>594.12</ele>
        <time>2014-01-17T11:01:37Z</time>
      </trkpt>
      <trkpt lat="48.1241" lon="6.80657">
        <ele>594.21</ele>
        <time>2014-01-17T11:01:39Z</time>
      </trkpt>
      <trkpt lat="48.12408" lon="6.8066">
        <ele>594.57</ele>
        <time>2014-01-17T11:01:42Z</time>
      </trkpt>
      <trkpt lat="48.12404" lon="6.80684">
        <ele>595.76</ele>
        <time>2014-01-17T11:01:55Z</time>
      </trkpt>
      <trkpt lat="48.12396" lon="6.8071">
        <ele>597.03</ele>
        <time>2014-01-17T11:02:12Z</time>
      </trkpt>
      <trkpt lat="48.12395" lon="6.80717">
        <ele>597.5</ele>
        <time>2014-01-17T11:02:19Z</time>
      </trkpt>
      <trkpt lat="48.12392" lon="6.80726">
        <ele>597.81</ele>
        <time>2014-01-17T11:02:26Z</time>
      </trkpt>
      <trkpt lat="48.1238" lon="6.80745">
        <ele>599.44</ele>
        <time>2014-01-17T11:02:42Z</time>
      </trkpt>
      <trkpt lat="48.1237" lon="6.8076">
        <ele>601.86</ele>
        <time>2014-01-17T11:03:01Z</time>
      </trkpt>
      <trkpt lat="48.12369" lon="6.80761">
        <ele>602.02</ele>
        <time>2014-01-17T11:03:02Z</time>
      </trkpt>
      <trkpt lat="48.12357" lon="6.80771">
        <ele>603.2</ele>
        <time>2014-01-17T11:03:25Z</time>
      </trkpt>
      <trkpt lat="48.12344" lon="6.80785">
        <ele>605.88</ele>
        <time>2014-01-17T11:03:45Z</time>
      </trkpt>
      <trkpt lat="48.12343" lon="6.80785">
        <ele>606.07</ele>
        <time>2014-01-17T11:03:46Z</time>
      </trkpt>
      <trkpt lat="48.12329" lon="6.80793">
        <ele>609.24</ele>
        <time>2014-01-17T11:04:10Z</time>
      </trkpt>
      <trkpt lat="48.12327" lon="6.80792">
        <ele>609.63</ele>
        <time>2014-01-17T11:04:13Z</time>
      </trkpt>
      <trkpt lat="48.12311" lon="6.80791">
        <ele>611</ele>
        <time>2014-01-17T11:04:33Z</time>
      </trkpt>
      <trkpt lat="48.12289" lon="6.80782">
        <ele>612.95</ele>
        <time>2014-01-17T11:04:52Z</time>
      </trkpt>
      <trkpt lat="48.12271" lon="6.80768">
        <ele>614.59</ele>
        <time>2014-01-17T11:05:08Z</time>
      </trkpt>
      <trkpt lat="48.12256" lon="6.80759">
        <ele>616.01</ele>
        <time>2014-01-17T11:05:22Z</time>
      </trkpt>
      <trkpt lat="48.12246" lon="6.80753">
        <ele>617.58</ele>
        <time>2014-01-17T11:05:34Z</time>
      </trkpt>
      <trkpt lat="48.12229" lon="6.80746">
        <ele>619.3</ele>
        <time>2014-01-17T11:05:50Z</time>
      </trkpt>
      <trkpt lat="48.12209" lon="6.80738">
        <ele>621.7</ele>
        <time>2014-01-17T11:06:08Z</time>
      </trkpt>
      <trkpt lat="48.12193" lon="6.80736">
        <ele>623.85</ele>
        <time>2014-01-17T11:06:29Z</time>
      </trkpt>
      <trkpt lat="48.12167" lon="6.80732">
        <ele>626.08</ele>
        <time>2014-01-17T11:06:51Z</time>
      </trkpt>
      <trkpt lat="48.12152" lon="6.80731">
        <ele>627.38</ele>
        <time>2014-01-17T11:07:05Z</time>
      </trkpt>
      <trkpt lat="48.12138" lon="6.80734">
        <ele>630.04</ele>
        <time>2014-01-17T11:07:25Z</time>
      </trkpt>
      <trkpt lat="48.12107" lon="6.80739">
        <ele>632.46</ele>
        <time>2014-01-17T11:07:49Z</time>
      </trkpt>
      <trkpt lat="48.1209" lon="6.80747">
        <ele>634.39</ele>
        <time>2014-01-17T11:08:06Z</time>
      </trkpt>
      <trkpt lat="48.12078" lon="6.80755">
        <ele>637.16</ele>
        <time>2014-01-17T11:08:23Z</time>
      </trkpt>
      <trkpt lat="48.12054" lon="6.80762">
        <ele>639.96</ele>
        <time>2014-01-17T11:08:46Z</time>
      </trkpt>
      <trkpt lat="48.12037" lon="6.80772">
        <ele>642.97</ele>
        <time>2014-01-17T11:09:06Z</time>
      </trkpt>
      <trkpt lat="48.12012" lon="6.80786">
        <ele>646.03</ele>
        <time>2014-01-17T11:09:29Z</time>
      </trkpt>
      <trkpt lat="48.12001" lon="6.80792">
        <ele>647.25</ele>
        <time>2014-01-17T11:09:37Z</time>
      </trkpt>
      <trkpt lat="48.11989" lon="6.80805">
        <ele>649.78</ele>
        <time>2014-01-17T11:09:51Z</time>
      </trkpt>
      <trkpt lat="48.11973" lon="6.80812">
        <ele>651.49</ele>
        <time>2014-01-17T11:10:03Z</time>
      </trkpt>
      <trkpt lat="48.11956" lon="6.8082">
        <ele>653.97</ele>
        <time>2014-01-17T11:10:24Z</time>
      </trkpt>
      <trkpt lat="48.11931" lon="6.8083">
        <ele>656.62</ele>
        <time>2014-01-17T11:10:47Z</time>
      </trkpt>
      <trkpt lat="48.11909" lon="6.80847">
        <ele>659.5</ele>
        <time>2014-01-17T11:11:13Z</time>
      </trkpt>
      <trkpt lat="48.11894" lon="6.80857">
        <ele>661.8</ele>
        <time>2014-01-17T11:11:34Z</time>
      </trkpt>
      <trkpt lat="48.11884" lon="6.8087">
        <ele>664.93</ele>
        <time>2014-01-17T11:11:50Z</time>
      </trkpt>
      <trkpt lat="48.11877" lon="6.80886">
        <ele>668</ele>
        <time>2014-01-17T11:12:11Z</time>
      </trkpt>
      <trkpt lat="48.11873" lon="6.80893">
        <ele>668.73</ele>
        <time>2014-01-17T11:12:16Z</time>
      </trkpt>
      <trkpt lat="48.11857" lon="6.80898">
        <ele>670.87</ele>
        <time>2014-01-17T11:12:37Z</time>
      </trkpt>
      <trkpt lat="48.11846" lon="6.80904">
        <ele>670.44</ele>
        <time>2014-01-17T11:12:56Z</time>
      </trkpt>
      <trkpt lat="48.11841" lon="6.80918">
        <ele>672.06</ele>
        <time>2014-01-17T11:13:19Z</time>
      </trkpt>
      <trkpt lat="48.11849" lon="6.80928">
        <ele>675.16</ele>
        <time>2014-01-17T11:13:39Z</time>
      </trkpt>
      <trkpt lat="48.11865" lon="6.80942">
        <ele>677.73</ele>
        <time>2014-01-17T11:14:02Z</time>
      </trkpt>
      <trkpt lat="48.11884" lon="6.80959">
        <ele>679.98</ele>
        <time>2014-01-17T11:14:25Z</time>
      </trkpt>
      <trkpt lat="48.11896" lon="6.80967">
        <ele>681.17</ele>
        <time>2014-01-17T11:14:37Z</time>
      </trkpt>
      <trkpt lat="48.1191" lon="6.8097">
        <ele>681.86</ele>
        <time>2014-01-17T11:14:55Z</time>
      </trkpt>
      <trkpt lat="48.11915" lon="6.80975">
        <ele>681.5</ele>
        <time>2014-01-17T11:15:20Z</time>
      </trkpt>
      <trkpt lat="48.11918" lon="6.80976">
        <ele>681.26</ele>
        <time>2014-01-17T11:15:49Z</time>
      </trkpt>
      <trkpt lat="48.11917" lon="6.80973">
        <ele>681.53</ele>
        <time>2014-01-17T11:16:08Z</time>
      </trkpt>
      <trkpt lat="48.11924" lon="6.80974">
        <ele>681.98</ele>
        <time>2014-01-17T11:16:24Z</time>
      </trkpt>
      <trkpt lat="48.11926" lon="6.80975">
        <ele>682.12</ele>
        <time>2014-01-17T11:16:26Z</time>
      </trkpt>
      <trkpt lat="48.11939" lon="6.80973">
        <ele>683.11</ele>
        <time>2014-01-17T11:16:39Z</time>
      </trkpt>
      <trkpt lat="48.11953" lon="6.80983">
        <ele>684.6</ele>
        <time>2014-01-17T11:16:56Z</time>
      </trkpt>
      <trkpt lat="48.11974" lon="6.80992">
        <ele>687.22</ele>
        <time>2014-01-17T11:17:22Z</time>
      </trkpt>
      <trkpt lat="48.11987" lon="6.81003">
        <ele>689.93</ele>
        <time>2014-01-17T11:17:45Z</time>
      </trkpt>
      <trkpt lat="48.12002" lon="6.8101">
        <ele>692.77</ele>
        <time>2014-01-17T11:18:06Z</time>
      </trkpt>
      <trkpt lat="48.12018" lon="6.81022">
        <ele>695.4</ele>
        <time>2014-01-17T11:18:28Z</time>
      </trkpt>
      <trkpt lat="48.12028" lon="6.81031">
        <ele>698</ele>
        <time>2014-01-17T11:18:49Z</time>
      </trkpt>
      <trkpt lat="48.12034" lon="6.81045">
        <ele>701.09</ele>
        <time>2014-01-17T11:19:13Z</time>
      </trkpt>
      <trkpt lat="48.1204" lon="6.81071">
        <ele>704.1</ele>
        <time>2014-01-17T11:19:35Z</time>
      </trkpt>
      <trkpt lat="48.1205" lon="6.81097">
        <ele>706.81</ele>
        <time>2014-01-17T11:19:56Z</time>
      </trkpt>
      <trkpt lat="48.12052" lon="6.81117">
        <ele>710</ele>
        <time>2014-01-17T11:20:15Z</time>
      </trkpt>
      <trkpt lat="48.12051" lon="6.81134">
        <ele>713.02</ele>
        <time>2014-01-17T11:20:34Z</time>
      </trkpt>
      <trkpt lat="48.12052" lon="6.81159">
        <ele>715.21</ele>
        <time>2014-01-17T11:20:53Z</time>
      </trkpt>
      <trkpt lat="48.12043" lon="6.81178">
        <ele>718.02</ele>
        <time>2014-01-17T11:21:15Z</time>
      </trkpt>
      <trkpt lat="48.12028" lon="6.81194">
        <ele>721.01</ele>
        <time>2014-01-17T11:21:35Z</time>
      </trkpt>
      <trkpt lat="48.12013" lon="6.8121">
        <ele>723.72</ele>
        <time>2014-01-17T11:21:57Z</time>
      </trkpt>
      <trkpt lat="48.11999" lon="6.81228">
        <ele>726.79</ele>
        <time>2014-01-17T11:22:20Z</time>
      </trkpt>
      <trkpt lat="48.11981" lon="6.81249">
        <ele>729.43</ele>
        <time>2014-01-17T11:22:42Z</time>
      </trkpt>
      <trkpt lat="48.11975" lon="6.81274">
        <ele>732.21</ele>
        <time>2014-01-17T11:23:04Z</time>
      </trkpt>
      <trkpt lat="48.11966" lon="6.813">
        <ele>735.36</ele>
        <time>2014-01-17T11:23:21Z</time>
      </trkpt>
      <trkpt lat="48.11962" lon="6.81318">
        <ele>737.49</ele>
        <time>2014-01-17T11:23:37Z</time>
      </trkpt>
      <trkpt lat="48.11956" lon="6.81344">
        <ele>739.71</ele>
        <time>2014-01-17T11:23:55Z</time>
      </trkpt>
      <trkpt lat="48.11944" lon="6.81365">
        <ele>742.65</ele>
        <time>2014-01-17T11:24:16Z</time>
      </trkpt>
      <trkpt lat="48.11933" lon="6.81376">
        <ele>744.27</ele>
        <time>2014-01-17T11:24:32Z</time>
      </trkpt>
      <trkpt lat="48.11921" lon="6.81384">
        <ele>747.4</ele>
        <time>2014-01-17T11:24:51Z</time>
      </trkpt>
      <trkpt lat="48.1191" lon="6.81372">
        <ele>749.9</ele>
        <time>2014-01-17T11:25:10Z</time>
      </trkpt>
      <trkpt lat="48.11899" lon="6.81361">
        <ele>752.02</ele>
        <time>2014-01-17T11:25:30Z</time>
      </trkpt>
      <trkpt lat="48.11885" lon="6.81339">
        <ele>754.75</ele>
        <time>2014-01-17T11:25:50Z</time>
      </trkpt>
      <trkpt lat="48.11861" lon="6.81323">
        <ele>756.42</ele>
        <time>2014-01-17T11:26:09Z</time>
      </trkpt>
      <trkpt lat="48.11847" lon="6.81318">
        <ele>757.83</ele>
        <time>2014-01-17T11:26:24Z</time>
      </trkpt>
      <trkpt lat="48.11842" lon="6.8132">
        <ele>757.89</ele>
        <time>2014-01-17T11:26:32Z</time>
      </trkpt>
      <trkpt lat="48.11838" lon="6.81318">
        <ele>757.85</ele>
        <time>2014-01-17T11:26:38Z</time>
      </trkpt>
      <trkpt lat="48.11829" lon="6.8132">
        <ele>757.86</ele>
        <time>2014-01-17T11:26:46Z</time>
      </trkpt>
      <trkpt lat="48.11819" lon="6.81325">
        <ele>758.64</ele>
        <time>2014-01-17T11:26:55Z</time>
      </trkpt>
      <trkpt lat="48.11813" lon="6.81331">
        <ele>759.16</ele>
        <time>2014-01-17T11:27:15Z</time>
      </trkpt>
      <trkpt lat="48.11801" lon="6.81335">
        <ele>760.54</ele>
        <time>2014-01-17T11:27:32Z</time>
      </trkpt>
      <trkpt lat="48.11799" lon="6.81342">
        <ele>762.16</ele>
        <time>2014-01-17T11:27:50Z</time>
      </trkpt>
      <trkpt lat="48.11803" lon="6.81338">
        <ele>761.69</ele>
        <time>2014-01-17T11:28:16Z</time>
      </trkpt>
      <trkpt lat="48.11804" lon="6.81338">
        <ele>761.65</ele>
        <time>2014-01-17T11:28:23Z</time>
      </trkpt>
      <trkpt lat="48.11803" lon="6.81329">
        <ele>761.6</ele>
        <time>2014-01-17T11:28:52Z</time>
      </trkpt>
      <trkpt lat="48.11802" lon="6.81333">
        <ele>761.79</ele>
        <time>2014-01-17T11:29:26Z</time>
      </trkpt>
      <trkpt lat="48.11802" lon="6.81345">
        <ele>761.55</ele>
        <time>2014-01-17T11:30:01Z</time>
      </trkpt>
      <trkpt lat="48.11804" lon="6.81344">
        <ele>761.5</ele>
        <time>2014-01-17T11:30:17Z</time>
      </trkpt>
      <trkpt lat="48.11804" lon="6.81342">
        <ele>761.42</ele>
        <time>2014-01-17T11:30:27Z</time>
      </trkpt>
      <trkpt lat="48.11798" lon="6.81342">
        <ele>762.28</ele>
        <time>2014-01-17T11:30:56Z</time>
      </trkpt>
      <trkpt lat="48.11798" lon="6.81338">
        <ele>762.15</ele>
        <time>2014-01-17T11:31:16Z</time>
      </trkpt>
      <trkpt lat="48.11797" lon="6.81337">
        <ele>762.56</ele>
        <time>2014-01-17T11:31:45Z</time>
      </trkpt>
      <trkpt lat="48.11791" lon="6.81345">
        <ele>764.55</ele>
        <time>2014-01-17T11:32:05Z</time>
      </trkpt>
      <trkpt lat="48.11784" lon="6.8135">
        <ele>765.51</ele>
        <time>2014-01-17T11:32:18Z</time>
      </trkpt>
      <trkpt lat="48.11755" lon="6.81366">
        <ele>766.86</ele>
        <time>2014-01-17T11:32:41Z</time>
      </trkpt>
      <trkpt lat="48.11746" lon="6.8138">
        <ele>768.13</ele>
        <time>2014-01-17T11:32:56Z</time>
      </trkpt>
      <trkpt lat="48.11742" lon="6.81384">
        <ele>768.69</ele>
        <time>2014-01-17T11:33:01Z</time>
      </trkpt>
      <trkpt lat="48.11731" lon="6.81403">
        <ele>770.82</ele>
        <time>2014-01-17T11:33:22Z</time>
      </trkpt>
      <trkpt lat="48.11717" lon="6.81418">
        <ele>772.27</ele>
        <time>2014-01-17T11:33:44Z</time>
      </trkpt>
      <trkpt lat="48.11695" lon="6.81433">
        <ele>773.15</ele>
        <time>2014-01-17T11:34:03Z</time>
      </trkpt>
      <trkpt lat="48.11678" lon="6.81448">
        <ele>774.4</ele>
        <time>2014-01-17T11:34:24Z</time>
      </trkpt>
      <trkpt lat="48.11673" lon="6.81452">
        <ele>775.16</ele>
        <time>2014-01-17T11:34:30Z</time>
      </trkpt>
      <trkpt lat="48.11667" lon="6.81453">
        <ele>775.91</ele>
        <time>2014-01-17T11:34:35Z</time>
      </trkpt>
      <trkpt lat="48.11649" lon="6.81477">
        <ele>777.3</ele>
        <time>2014-01-17T11:34:55Z</time>
      </trkpt>
      <trkpt lat="48.11632" lon="6.81497">
        <ele>778.83</ele>
        <time>2014-01-17T11:35:16Z</time>
      </trkpt>
      <trkpt lat="48.11617" lon="6.81513">
        <ele>780.66</ele>
        <time>2014-01-17T11:35:39Z</time>
      </trkpt>
      <trkpt lat="48.11609" lon="6.81543">
        <ele>781.8</ele>
        <time>2014-01-17T11:36:01Z</time>
      </trkpt>
      <trkpt lat="48.11606" lon="6.81545">
        <ele>781.97</ele>
        <time>2014-01-17T11:36:04Z</time>
      </trkpt>
      <trkpt lat="48.11591" lon="6.81552">
        <ele>783.16</ele>
        <time>2014-01-17T11:36:26Z</time>
      </trkpt>
      <trkpt lat="48.1157" lon="6.81561">
        <ele>784.27</ele>
        <time>2014-01-17T11:36:44Z</time>
      </trkpt>
      <trkpt lat="48.11548" lon="6.8157">
        <ele>785.59</ele>
        <time>2014-01-17T11:37:05Z</time>
      </trkpt>
      <trkpt lat="48.11529" lon="6.8157">
        <ele>787.09</ele>
        <time>2014-01-17T11:37:23Z</time>
      </trkpt>
      <trkpt lat="48.11503" lon="6.81573">
        <ele>788.71</ele>
        <time>2014-01-17T11:37:45Z</time>
      </trkpt>
      <trkpt lat="48.11495" lon="6.81573">
        <ele>789.32</ele>
        <time>2014-01-17T11:37:53Z</time>
      </trkpt>
      <trkpt lat="48.11488" lon="6.81576">
        <ele>789.52</ele>
        <time>2014-01-17T11:37:59Z</time>
      </trkpt>
      <trkpt lat="48.1146" lon="6.81579">
        <ele>790.4</ele>
        <time>2014-01-17T11:38:15Z</time>
      </trkpt>
      <trkpt lat="48.11456" lon="6.8158">
        <ele>790.36</ele>
        <time>2014-01-17T11:38:21Z</time>
      </trkpt>
      <trkpt lat="48.11451" lon="6.81583">
        <ele>790.37</ele>
        <time>2014-01-17T11:38:29Z</time>
      </trkpt>
      <trkpt lat="48.11443" lon="6.81587">
        <ele>790.4</ele>
        <time>2014-01-17T11:38:49Z</time>
      </trkpt>
      <trkpt lat="48.11427" lon="6.81589">
        <ele>791.8</ele>
        <time>2014-01-17T11:39:13Z</time>
      </trkpt>
      <trkpt lat="48.11405" lon="6.81597">
        <ele>793.72</ele>
        <time>2014-01-17T11:39:34Z</time>
      </trkpt>
      <trkpt lat="48.11384" lon="6.81597">
        <ele>795.04</ele>
        <time>2014-01-17T11:39:54Z</time>
      </trkpt>
      <trkpt lat="48.11374" lon="6.81597">
        <ele>796.03</ele>
        <time>2014-01-17T11:40:04Z</time>
      </trkpt>
      <trkpt lat="48.11372" lon="6.81596">
        <ele>796.24</ele>
        <time>2014-01-17T11:40:07Z</time>
      </trkpt>
      <trkpt lat="48.11368" lon="6.81595">
        <ele>796.59</ele>
        <time>2014-01-17T11:40:14Z</time>
      </trkpt>
      <trkpt lat="48.11364" lon="6.816">
        <ele>797.06</ele>
        <time>2014-01-17T11:40:23Z</time>
      </trkpt>
      <trkpt lat="48.11352" lon="6.81601">
        <ele>797.43</ele>
        <time>2014-01-17T11:40:47Z</time>
      </trkpt>
      <trkpt lat="48.11341" lon="6.81592">
        <ele>797.63</ele>
        <time>2014-01-17T11:41:02Z</time>
      </trkpt>
      <trkpt lat="48.11328" lon="6.81577">
        <ele>798.07</ele>
        <time>2014-01-17T11:41:21Z</time>
      </trkpt>
      <trkpt lat="48.11327" lon="6.81573">
        <ele>798.69</ele>
        <time>2014-01-17T11:41:48Z</time>
      </trkpt>
      <trkpt lat="48.11326" lon="6.81575">
        <ele>798.34</ele>
        <time>2014-01-17T11:42:17Z</time>
      </trkpt>
      <trkpt lat="48.11321" lon="6.8157">
        <ele>798.31</ele>
        <time>2014-01-17T11:42:39Z</time>
      </trkpt>
      <trkpt lat="48.11312" lon="6.81556">
        <ele>798.89</ele>
        <time>2014-01-17T11:42:58Z</time>
      </trkpt>
      <trkpt lat="48.11293" lon="6.81537">
        <ele>801.22</ele>
        <time>2014-01-17T11:43:21Z</time>
      </trkpt>
      <trkpt lat="48.11274" lon="6.81519">
        <ele>803.28</ele>
        <time>2014-01-17T11:43:44Z</time>
      </trkpt>
      <trkpt lat="48.11256" lon="6.81503">
        <ele>805.95</ele>
        <time>2014-01-17T11:44:04Z</time>
      </trkpt>
      <trkpt lat="48.11238" lon="6.81488">
        <ele>807.82</ele>
        <time>2014-01-17T11:44:23Z</time>
      </trkpt>
      <trkpt lat="48.11222" lon="6.81474">
        <ele>809.44</ele>
        <time>2014-01-17T11:44:43Z</time>
      </trkpt>
      <trkpt lat="48.11198" lon="6.81456">
        <ele>810.6</ele>
        <time>2014-01-17T11:45:05Z</time>
      </trkpt>
      <trkpt lat="48.1118" lon="6.81449">
        <ele>811.72</ele>
        <time>2014-01-17T11:45:27Z</time>
      </trkpt>
      <trkpt lat="48.11156" lon="6.81448">
        <ele>813.22</ele>
        <time>2014-01-17T11:45:49Z</time>
      </trkpt>
      <trkpt lat="48.11131" lon="6.8144">
        <ele>813.86</ele>
        <time>2014-01-17T11:46:10Z</time>
      </trkpt>
      <trkpt lat="48.111" lon="6.81425">
        <ele>813.7</ele>
        <time>2014-01-17T11:46:29Z</time>
      </trkpt>
      <trkpt lat="48.11073" lon="6.81408">
        <ele>812.58</ele>
        <time>2014-01-17T11:46:53Z</time>
      </trkpt>
      <trkpt lat="48.11057" lon="6.81388">
        <ele>811.89</ele>
        <time>2014-01-17T11:47:08Z</time>
      </trkpt>
      <trkpt lat="48.11032" lon="6.81368">
        <ele>810.23</ele>
        <time>2014-01-17T11:47:32Z</time>
      </trkpt>
      <trkpt lat="48.1101" lon="6.8135">
        <ele>808.98</ele>
        <time>2014-01-17T11:47:51Z</time>
      </trkpt>
      <trkpt lat="48.10993" lon="6.81328">
        <ele>808</ele>
        <time>2014-01-17T11:48:09Z</time>
      </trkpt>
      <trkpt lat="48.10968" lon="6.81304">
        <ele>806.34</ele>
        <time>2014-01-17T11:48:32Z</time>
      </trkpt>
      <trkpt lat="48.10949" lon="6.81281">
        <ele>805.53</ele>
        <time>2014-01-17T11:48:55Z</time>
      </trkpt>
      <trkpt lat="48.1093" lon="6.81264">
        <ele>805.96</ele>
        <time>2014-01-17T11:49:15Z</time>
      </trkpt>
      <trkpt lat="48.10902" lon="6.81238">
        <ele>805.55</ele>
        <time>2014-01-17T11:49:40Z</time>
      </trkpt>
      <trkpt lat="48.10886" lon="6.81203">
        <ele>805.81</ele>
        <time>2014-01-17T11:49:58Z</time>
      </trkpt>
      <trkpt lat="48.10878" lon="6.81193">
        <ele>805.91</ele>
        <time>2014-01-17T11:50:03Z</time>
      </trkpt>
      <trkpt lat="48.10871" lon="6.81189">
        <ele>806.24</ele>
        <time>2014-01-17T11:50:08Z</time>
      </trkpt>
      <trkpt lat="48.10853" lon="6.81189">
        <ele>807.38</ele>
        <time>2014-01-17T11:50:26Z</time>
      </trkpt>
      <trkpt lat="48.1083" lon="6.81187">
        <ele>808.34</ele>
        <time>2014-01-17T11:50:47Z</time>
      </trkpt>
      <trkpt lat="48.10814" lon="6.81193">
        <ele>810.22</ele>
        <time>2014-01-17T11:51:08Z</time>
      </trkpt>
      <trkpt lat="48.10793" lon="6.81188">
        <ele>812.82</ele>
        <time>2014-01-17T11:51:30Z</time>
      </trkpt>
      <trkpt lat="48.10779" lon="6.81178">
        <ele>815.1</ele>
        <time>2014-01-17T11:51:48Z</time>
      </trkpt>
      <trkpt lat="48.10762" lon="6.81159">
        <ele>818.14</ele>
        <time>2014-01-17T11:52:11Z</time>
      </trkpt>
      <trkpt lat="48.1074" lon="6.81132">
        <ele>819.54</ele>
        <time>2014-01-17T11:52:34Z</time>
      </trkpt>
      <trkpt lat="48.10734" lon="6.81123">
        <ele>819.82</ele>
        <time>2014-01-17T11:52:43Z</time>
      </trkpt>
      <trkpt lat="48.10723" lon="6.81103">
        <ele>820.16</ele>
        <time>2014-01-17T11:52:59Z</time>
      </trkpt>
      <trkpt lat="48.10714" lon="6.81087">
        <ele>819.74</ele>
        <time>2014-01-17T11:53:14Z</time>
      </trkpt>
      <trkpt lat="48.10714" lon="6.81085">
        <ele>819.64</ele>
        <time>2014-01-17T11:53:15Z</time>
      </trkpt>
      <trkpt lat="48.10703" lon="6.81065">
        <ele>819.26</ele>
        <time>2014-01-17T11:53:50Z</time>
      </trkpt>
      <trkpt lat="48.10692" lon="6.81055">
        <ele>818.41</ele>
        <time>2014-01-17T11:54:09Z</time>
      </trkpt>
      <trkpt lat="48.10682" lon="6.81036">
        <ele>816.25</ele>
        <time>2014-01-17T11:54:30Z</time>
      </trkpt>
      <trkpt lat="48.1068" lon="6.81015">
        <ele>814.13</ele>
        <time>2014-01-17T11:54:46Z</time>
      </trkpt>
      <trkpt lat="48.10679" lon="6.8097">
        <ele>812.05</ele>
        <time>2014-01-17T11:55:07Z</time>
      </trkpt>
      <trkpt lat="48.1068" lon="6.80939">
        <ele>810.8</ele>
        <time>2014-01-17T11:55:20Z</time>
      </trkpt>
      <trkpt lat="48.10678" lon="6.80907">
        <ele>809.63</ele>
        <time>2014-01-17T11:55:38Z</time>
      </trkpt>
      <trkpt lat="48.10671" lon="6.80881">
        <ele>807.61</ele>
        <time>2014-01-17T11:55:58Z</time>
      </trkpt>
      <trkpt lat="48.10645" lon="6.80862">
        <ele>804.83</ele>
        <time>2014-01-17T11:56:18Z</time>
      </trkpt>
      <trkpt lat="48.1063" lon="6.80847">
        <ele>802.14</ele>
        <time>2014-01-17T11:56:37Z</time>
      </trkpt>
      <trkpt lat="48.10614" lon="6.8083">
        <ele>799.06</ele>
        <time>2014-01-17T11:56:56Z</time>
      </trkpt>
      <trkpt lat="48.106" lon="6.80796">
        <ele>795.91</ele>
        <time>2014-01-17T11:57:14Z</time>
      </trkpt>
      <trkpt lat="48.10583" lon="6.80755">
        <ele>793.77</ele>
        <time>2014-01-17T11:57:28Z</time>
      </trkpt>
      <trkpt lat="48.10576" lon="6.80753">
        <ele>793.65</ele>
        <time>2014-01-17T11:57:37Z</time>
      </trkpt>
      <trkpt lat="48.10575" lon="6.80752">
        <ele>793.58</ele>
        <time>2014-01-17T11:57:39Z</time>
      </trkpt>
      <trkpt lat="48.10572" lon="6.80748">
        <ele>793.42</ele>
        <time>2014-01-17T11:57:44Z</time>
      </trkpt>
      <trkpt lat="48.10563" lon="6.80738">
        <ele>792.87</ele>
        <time>2014-01-17T11:58:16Z</time>
      </trkpt>
      <trkpt lat="48.10569" lon="6.80732">
        <ele>792.95</ele>
        <time>2014-01-17T11:58:40Z</time>
      </trkpt>
      <trkpt lat="48.10572" lon="6.80729">
        <ele>793.44</ele>
        <time>2014-01-17T11:59:03Z</time>
      </trkpt>
      <trkpt lat="48.10572" lon="6.80731">
        <ele>790.95</ele>
        <time>2014-01-17T11:59:20Z</time>
      </trkpt>
      <trkpt lat="48.10568" lon="6.80713">
        <ele>788.78</ele>
        <time>2014-01-17T11:59:40Z</time>
      </trkpt>
      <trkpt lat="48.1055" lon="6.80686">
        <ele>787.17</ele>
        <time>2014-01-17T11:59:58Z</time>
      </trkpt>
      <trkpt lat="48.10546" lon="6.80681">
        <ele>787.06</ele>
        <time>2014-01-17T12:00:04Z</time>
      </trkpt>
      <trkpt lat="48.10539" lon="6.80669">
        <ele>786.76</ele>
        <time>2014-01-17T12:00:22Z</time>
      </trkpt>
      <trkpt lat="48.10518" lon="6.80656">
        <ele>786.99</ele>
        <time>2014-01-17T12:00:44Z</time>
      </trkpt>
      <trkpt lat="48.105" lon="6.80648">
        <ele>785.95</ele>
        <time>2014-01-17T12:01:05Z</time>
      </trkpt>
      <trkpt lat="48.10484" lon="6.80644">
        <ele>785.52</ele>
        <time>2014-01-17T12:01:23Z</time>
      </trkpt>
      <trkpt lat="48.10463" lon="6.80627">
        <ele>784.98</ele>
        <time>2014-01-17T12:01:46Z</time>
      </trkpt>
      <trkpt lat="48.10435" lon="6.80602">
        <ele>784.3</ele>
        <time>2014-01-17T12:02:05Z</time>
      </trkpt>
      <trkpt lat="48.1042" lon="6.80576">
        <ele>781.57</ele>
        <time>2014-01-17T12:02:27Z</time>
      </trkpt>
      <trkpt lat="48.10401" lon="6.80541">
        <ele>779.03</ele>
        <time>2014-01-17T12:02:48Z</time>
      </trkpt>
      <trkpt lat="48.1039" lon="6.80508">
        <ele>777.58</ele>
        <time>2014-01-17T12:03:09Z</time>
      </trkpt>
      <trkpt lat="48.10375" lon="6.80478">
        <ele>776.2</ele>
        <time>2014-01-17T12:03:28Z</time>
      </trkpt>
      <trkpt lat="48.10362" lon="6.80446">
        <ele>775.65</ele>
        <time>2014-01-17T12:03:47Z</time>
      </trkpt>
      <trkpt lat="48.10337" lon="6.80422">
        <ele>773.75</ele>
        <time>2014-01-17T12:04:04Z</time>
      </trkpt>
      <trkpt lat="48.10335" lon="6.80421">
        <ele>773.64</ele>
        <time>2014-01-17T12:04:05Z</time>
      </trkpt>
      <trkpt lat="48.10313" lon="6.80403">
        <ele>772.98</ele>
        <time>2014-01-17T12:04:22Z</time>
      </trkpt>
      <trkpt lat="48.10311" lon="6.80377">
        <ele>772.46</ele>
        <time>2014-01-17T12:04:41Z</time>
      </trkpt>
      <trkpt lat="48.10305" lon="6.80338">
        <ele>772.06</ele>
        <time>2014-01-17T12:04:59Z</time>
      </trkpt>
      <trkpt lat="48.10301" lon="6.80311">
        <ele>772.52</ele>
        <time>2014-01-17T12:05:19Z</time>
      </trkpt>
      <trkpt lat="48.10293" lon="6.80293">
        <ele>773.05</ele>
        <time>2014-01-17T12:05:38Z</time>
      </trkpt>
      <trkpt lat="48.10265" lon="6.80276">
        <ele>772.98</ele>
        <time>2014-01-17T12:05:58Z</time>
      </trkpt>
      <trkpt lat="48.10243" lon="6.80253">
        <ele>773.94</ele>
        <time>2014-01-17T12:06:18Z</time>
      </trkpt>
      <trkpt lat="48.10226" lon="6.80247">
        <ele>774.95</ele>
        <time>2014-01-17T12:06:34Z</time>
      </trkpt>
      <trkpt lat="48.10194" lon="6.80243">
        <ele>775.32</ele>
        <time>2014-01-17T12:06:55Z</time>
      </trkpt>
      <trkpt lat="48.10173" lon="6.80243">
        <ele>776.12</ele>
        <time>2014-01-17T12:07:14Z</time>
      </trkpt>
      <trkpt lat="48.10146" lon="6.80242">
        <ele>778.13</ele>
        <time>2014-01-17T12:07:38Z</time>
      </trkpt>
      <trkpt lat="48.10121" lon="6.80244">
        <ele>779.38</ele>
        <time>2014-01-17T12:08:01Z</time>
      </trkpt>
      <trkpt lat="48.10095" lon="6.80246">
        <ele>779.07</ele>
        <time>2014-01-17T12:08:22Z</time>
      </trkpt>
      <trkpt lat="48.1007" lon="6.80248">
        <ele>777.99</ele>
        <time>2014-01-17T12:08:41Z</time>
      </trkpt>
      <trkpt lat="48.10043" lon="6.80247">
        <ele>776.92</ele>
        <time>2014-01-17T12:09:02Z</time>
      </trkpt>
      <trkpt lat="48.10027" lon="6.80234">
        <ele>776.79</ele>
        <time>2014-01-17T12:09:22Z</time>
      </trkpt>
      <trkpt lat="48.1001" lon="6.80211">
        <ele>777.74</ele>
        <time>2014-01-17T12:09:45Z</time>
      </trkpt>
      <trkpt lat="48.10002" lon="6.80177">
        <ele>775.56</ele>
        <time>2014-01-17T12:10:07Z</time>
      </trkpt>
      <trkpt lat="48.09998" lon="6.80157">
        <ele>775.81</ele>
        <time>2014-01-17T12:10:26Z</time>
      </trkpt>
      <trkpt lat="48.09996" lon="6.80117">
        <ele>777.27</ele>
        <time>2014-01-17T12:10:47Z</time>
      </trkpt>
      <trkpt lat="48.09987" lon="6.80074">
        <ele>778.51</ele>
        <time>2014-01-17T12:11:07Z</time>
      </trkpt>
      <trkpt lat="48.0998" lon="6.80038">
        <ele>780.22</ele>
        <time>2014-01-17T12:11:29Z</time>
      </trkpt>
      <trkpt lat="48.09966" lon="6.80008">
        <ele>780.15</ele>
        <time>2014-01-17T12:11:47Z</time>
      </trkpt>
      <trkpt lat="48.09943" lon="6.79974">
        <ele>779.26</ele>
        <time>2014-01-17T12:12:09Z</time>
      </trkpt>
      <trkpt lat="48.09926" lon="6.79954">
        <ele>779.57</ele>
        <time>2014-01-17T12:12:29Z</time>
      </trkpt>
      <trkpt lat="48.09918" lon="6.79947">
        <ele>779.69</ele>
        <time>2014-01-17T12:12:38Z</time>
      </trkpt>
      <trkpt lat="48.09889" lon="6.79927">
        <ele>781.65</ele>
        <time>2014-01-17T12:13:00Z</time>
      </trkpt>
      <trkpt lat="48.09867" lon="6.79919">
        <ele>782.99</ele>
        <time>2014-01-17T12:13:13Z</time>
      </trkpt>
      <trkpt lat="48.09857" lon="6.79919">
        <ele>784</ele>
        <time>2014-01-17T12:13:27Z</time>
      </trkpt>
      <trkpt lat="48.09847" lon="6.79933">
        <ele>784.69</ele>
        <time>2014-01-17T12:13:49Z</time>
      </trkpt>
      <trkpt lat="48.09833" lon="6.79943">
        <ele>786.67</ele>
        <time>2014-01-17T12:14:08Z</time>
      </trkpt>
      <trkpt lat="48.09806" lon="6.79954">
        <ele>786.88</ele>
        <time>2014-01-17T12:14:28Z</time>
      </trkpt>
      <trkpt lat="48.09772" lon="6.79957">
        <ele>786.35</ele>
        <time>2014-01-17T12:14:48Z</time>
      </trkpt>
      <trkpt lat="48.09738" lon="6.79958">
        <ele>787.28</ele>
        <time>2014-01-17T12:15:10Z</time>
      </trkpt>
      <trkpt lat="48.09724" lon="6.79966">
        <ele>786.89</ele>
        <time>2014-01-17T12:15:16Z</time>
      </trkpt>
      <trkpt lat="48.09704" lon="6.79965">
        <ele>784.84</ele>
        <time>2014-01-17T12:15:28Z</time>
      </trkpt>
      <trkpt lat="48.097" lon="6.79961">
        <ele>784.22</ele>
        <time>2014-01-17T12:15:31Z</time>
      </trkpt>
      <trkpt lat="48.09694" lon="6.79938">
        <ele>781.56</ele>
        <time>2014-01-17T12:15:46Z</time>
      </trkpt>
      <trkpt lat="48.09685" lon="6.79908">
        <ele>778.98</ele>
        <time>2014-01-17T12:16:06Z</time>
      </trkpt>
      <trkpt lat="48.09676" lon="6.79869">
        <ele>778.76</ele>
        <time>2014-01-17T12:16:27Z</time>
      </trkpt>
      <trkpt lat="48.09671" lon="6.79841">
        <ele>778.93</ele>
        <time>2014-01-17T12:16:47Z</time>
      </trkpt>
      <trkpt lat="48.09658" lon="6.79815">
        <ele>780.18</ele>
        <time>2014-01-17T12:17:07Z</time>
      </trkpt>
      <trkpt lat="48.09641" lon="6.79796">
        <ele>781.16</ele>
        <time>2014-01-17T12:17:27Z</time>
      </trkpt>
      <trkpt lat="48.09607" lon="6.79784">
        <ele>780.01</ele>
        <time>2014-01-17T12:17:50Z</time>
      </trkpt>
      <trkpt lat="48.09579" lon="6.79787">
        <ele>778.25</ele>
        <time>2014-01-17T12:18:08Z</time>
      </trkpt>
      <trkpt lat="48.09581" lon="6.79808">
        <ele>776.49</ele>
        <time>2014-01-17T12:18:27Z</time>
      </trkpt>
      <trkpt lat="48.09586" lon="6.79821">
        <ele>776.22</ele>
        <time>2014-01-17T12:18:49Z</time>
      </trkpt>
      <trkpt lat="48.09554" lon="6.79842">
        <ele>775.66</ele>
        <time>2014-01-17T12:19:09Z</time>
      </trkpt>
      <trkpt lat="48.09539" lon="6.79839">
        <ele>775.43</ele>
        <time>2014-01-17T12:19:15Z</time>
      </trkpt>
      <trkpt lat="48.09537" lon="6.79827">
        <ele>775.46</ele>
        <time>2014-01-17T12:19:30Z</time>
      </trkpt>
      <trkpt lat="48.09541" lon="6.79831">
        <ele>775.58</ele>
        <time>2014-01-17T12:19:36Z</time>
      </trkpt>
      <trkpt lat="48.09543" lon="6.7983">
        <ele>775.75</ele>
        <time>2014-01-17T12:19:38Z</time>
      </trkpt>
      <trkpt lat="48.09557" lon="6.79825">
        <ele>776.14</ele>
        <time>2014-01-17T12:19:51Z</time>
      </trkpt>
      <trkpt lat="48.09571" lon="6.79822">
        <ele>776.13</ele>
        <time>2014-01-17T12:20:18Z</time>
      </trkpt>
      <trkpt lat="48.09569" lon="6.79815">
        <ele>776.38</ele>
        <time>2014-01-17T12:20:39Z</time>
      </trkpt>
      <trkpt lat="48.09566" lon="6.79815">
        <ele>776.96</ele>
        <time>2014-01-17T12:21:04Z</time>
      </trkpt>
      <trkpt lat="48.09473" lon="6.79765">
        <ele>770.84</ele>
        <time>2014-01-17T12:30:47Z</time>
      </trkpt>
      <trkpt lat="48.09551" lon="6.79792">
        <ele>780.04</ele>
        <time>2014-01-17T13:01:07Z</time>
      </trkpt>
      <trkpt lat="48.09565" lon="6.79791">
        <ele>780.22</ele>
        <time>2014-01-17T13:01:24Z</time>
      </trkpt>
      <trkpt lat="48.09565" lon="6.79791">
        <ele>780.36</ele>
        <time>2014-01-17T13:01:25Z</time>
      </trkpt>
      <trkpt lat="48.09566" lon="6.7979">
        <ele>780.62</ele>
        <time>2014-01-17T13:01:27Z</time>
      </trkpt>
      <trkpt lat="48.09579" lon="6.79784">
        <ele>781.64</ele>
        <time>2014-01-17T13:01:43Z</time>
      </trkpt>
      <trkpt lat="48.09591" lon="6.79785">
        <ele>782.23</ele>
        <time>2014-01-17T13:01:56Z</time>
      </trkpt>
      <trkpt lat="48.09599" lon="6.79782">
        <ele>783.39</ele>
        <time>2014-01-17T13:02:07Z</time>
      </trkpt>
      <trkpt lat="48.09608" lon="6.79781">
        <ele>783.53</ele>
        <time>2014-01-17T13:02:24Z</time>
      </trkpt>
      <trkpt lat="48.09624" lon="6.7979">
        <ele>782.57</ele>
        <time>2014-01-17T13:02:47Z</time>
      </trkpt>
      <trkpt lat="48.09645" lon="6.79811">
        <ele>782.31</ele>
        <time>2014-01-17T13:03:09Z</time>
      </trkpt>
      <trkpt lat="48.09657" lon="6.79844">
        <ele>781.75</ele>
        <time>2014-01-17T13:03:28Z</time>
      </trkpt>
      <trkpt lat="48.09663" lon="6.79863">
        <ele>782.56</ele>
        <time>2014-01-17T13:03:47Z</time>
      </trkpt>
      <trkpt lat="48.09663" lon="6.79867">
        <ele>782.95</ele>
        <time>2014-01-17T13:03:51Z</time>
      </trkpt>
      <trkpt lat="48.09671" lon="6.79896">
        <ele>784.79</ele>
        <time>2014-01-17T13:04:09Z</time>
      </trkpt>
      <trkpt lat="48.09685" lon="6.79921">
        <ele>787.12</ele>
        <time>2014-01-17T13:04:26Z</time>
      </trkpt>
      <trkpt lat="48.09713" lon="6.79936">
        <ele>788.67</ele>
        <time>2014-01-17T13:04:43Z</time>
      </trkpt>
      <trkpt lat="48.0973" lon="6.79941">
        <ele>788.45</ele>
        <time>2014-01-17T13:04:54Z</time>
      </trkpt>
      <trkpt lat="48.09744" lon="6.79946">
        <ele>788.95</ele>
        <time>2014-01-17T13:05:07Z</time>
      </trkpt>
      <trkpt lat="48.09762" lon="6.79951">
        <ele>789.2</ele>
        <time>2014-01-17T13:05:23Z</time>
      </trkpt>
      <trkpt lat="48.09771" lon="6.79959">
        <ele>788.98</ele>
        <time>2014-01-17T13:05:38Z</time>
      </trkpt>
      <trkpt lat="48.09776" lon="6.79971">
        <ele>789.18</ele>
        <time>2014-01-17T13:05:52Z</time>
      </trkpt>
      <trkpt lat="48.09786" lon="6.79966">
        <ele>789.23</ele>
        <time>2014-01-17T13:05:59Z</time>
      </trkpt>
      <trkpt lat="48.0979" lon="6.79965">
        <ele>789.14</ele>
        <time>2014-01-17T13:06:03Z</time>
      </trkpt>
      <trkpt lat="48.09808" lon="6.79954">
        <ele>788.17</ele>
        <time>2014-01-17T13:06:27Z</time>
      </trkpt>
      <trkpt lat="48.0982" lon="6.79948">
        <ele>787.59</ele>
        <time>2014-01-17T13:06:43Z</time>
      </trkpt>
      <trkpt lat="48.09835" lon="6.79935">
        <ele>786.81</ele>
        <time>2014-01-17T13:06:59Z</time>
      </trkpt>
      <trkpt lat="48.09858" lon="6.79922">
        <ele>786.08</ele>
        <time>2014-01-17T13:07:20Z</time>
      </trkpt>
      <trkpt lat="48.0986" lon="6.7992">
        <ele>786.05</ele>
        <time>2014-01-17T13:07:23Z</time>
      </trkpt>
      <trkpt lat="48.09876" lon="6.79909">
        <ele>785.49</ele>
        <time>2014-01-17T13:07:38Z</time>
      </trkpt>
      <trkpt lat="48.09883" lon="6.79905">
        <ele>785</ele>
        <time>2014-01-17T13:07:44Z</time>
      </trkpt>
      <trkpt lat="48.09889" lon="6.79903">
        <ele>784.95</ele>
        <time>2014-01-17T13:07:49Z</time>
      </trkpt>
      <trkpt lat="48.09894" lon="6.799">
        <ele>784.97</ele>
        <time>2014-01-17T13:07:53Z</time>
      </trkpt>
      <trkpt lat="48.09907" lon="6.79891">
        <ele>784.06</ele>
        <time>2014-01-17T13:08:06Z</time>
      </trkpt>
      <trkpt lat="48.09912" lon="6.79887">
        <ele>783.83</ele>
        <time>2014-01-17T13:08:10Z</time>
      </trkpt>
      <trkpt lat="48.09929" lon="6.79871">
        <ele>782.99</ele>
        <time>2014-01-17T13:08:26Z</time>
      </trkpt>
      <trkpt lat="48.09931" lon="6.79866">
        <ele>782.78</ele>
        <time>2014-01-17T13:08:31Z</time>
      </trkpt>
      <trkpt lat="48.09931" lon="6.79863">
        <ele>782.68</ele>
        <time>2014-01-17T13:08:33Z</time>
      </trkpt>
      <trkpt lat="48.09934" lon="6.79861">
        <ele>782.57</ele>
        <time>2014-01-17T13:08:35Z</time>
      </trkpt>
      <trkpt lat="48.09944" lon="6.79853">
        <ele>782.06</ele>
        <time>2014-01-17T13:08:41Z</time>
      </trkpt>
      <trkpt lat="48.09952" lon="6.79847">
        <ele>781.81</ele>
        <time>2014-01-17T13:08:48Z</time>
      </trkpt>
      <trkpt lat="48.09953" lon="6.79844">
        <ele>781.77</ele>
        <time>2014-01-17T13:08:50Z</time>
      </trkpt>
      <trkpt lat="48.09955" lon="6.79842">
        <ele>781.68</ele>
        <time>2014-01-17T13:08:52Z</time>
      </trkpt>
      <trkpt lat="48.09965" lon="6.79833">
        <ele>781.07</ele>
        <time>2014-01-17T13:09:00Z</time>
      </trkpt>
      <trkpt lat="48.09973" lon="6.79817">
        <ele>779.67</ele>
        <time>2014-01-17T13:09:14Z</time>
      </trkpt>
      <trkpt lat="48.09995" lon="6.79799">
        <ele>779.12</ele>
        <time>2014-01-17T13:09:25Z</time>
      </trkpt>
      <trkpt lat="48.10009" lon="6.79785">
        <ele>778.06</ele>
        <time>2014-01-17T13:09:38Z</time>
      </trkpt>
      <trkpt lat="48.10018" lon="6.79774">
        <ele>776.99</ele>
        <time>2014-01-17T13:09:51Z</time>
      </trkpt>
      <trkpt lat="48.10019" lon="6.79774">
        <ele>776.99</ele>
        <time>2014-01-17T13:09:52Z</time>
      </trkpt>
      <trkpt lat="48.10034" lon="6.79766">
        <ele>775.78</ele>
        <time>2014-01-17T13:10:10Z</time>
      </trkpt>
      <trkpt lat="48.10058" lon="6.79757">
        <ele>774.22</ele>
        <time>2014-01-17T13:10:31Z</time>
      </trkpt>
      <trkpt lat="48.10069" lon="6.79757">
        <ele>773.65</ele>
        <time>2014-01-17T13:10:38Z</time>
      </trkpt>
      <trkpt lat="48.10079" lon="6.79757">
        <ele>773.33</ele>
        <time>2014-01-17T13:10:45Z</time>
      </trkpt>
      <trkpt lat="48.101" lon="6.79755">
        <ele>772.46</ele>
        <time>2014-01-17T13:11:01Z</time>
      </trkpt>
      <trkpt lat="48.10107" lon="6.79753">
        <ele>772.29</ele>
        <time>2014-01-17T13:11:06Z</time>
      </trkpt>
      <trkpt lat="48.10124" lon="6.79747">
        <ele>771.41</ele>
        <time>2014-01-17T13:11:19Z</time>
      </trkpt>
      <trkpt lat="48.10131" lon="6.79743">
        <ele>770.5</ele>
        <time>2014-01-17T13:11:26Z</time>
      </trkpt>
      <trkpt lat="48.10144" lon="6.79734">
        <ele>769.13</ele>
        <time>2014-01-17T13:11:37Z</time>
      </trkpt>
      <trkpt lat="48.10151" lon="6.79728">
        <ele>768.41</ele>
        <time>2014-01-17T13:11:42Z</time>
      </trkpt>
      <trkpt lat="48.10155" lon="6.79727">
        <ele>768.19</ele>
        <time>2014-01-17T13:11:44Z</time>
      </trkpt>
      <trkpt lat="48.10161" lon="6.79725">
        <ele>767.76</ele>
        <time>2014-01-17T13:11:48Z</time>
      </trkpt>
      <trkpt lat="48.10179" lon="6.79717">
        <ele>766.02</ele>
        <time>2014-01-17T13:12:03Z</time>
      </trkpt>
      <trkpt lat="48.10196" lon="6.79714">
        <ele>762.69</ele>
        <time>2014-01-17T13:12:22Z</time>
      </trkpt>
      <trkpt lat="48.10216" lon="6.79702">
        <ele>760.05</ele>
        <time>2014-01-17T13:12:42Z</time>
      </trkpt>
      <trkpt lat="48.10233" lon="6.79692">
        <ele>756.99</ele>
        <time>2014-01-17T13:13:02Z</time>
      </trkpt>
      <trkpt lat="48.10255" lon="6.79678">
        <ele>753.83</ele>
        <time>2014-01-17T13:13:22Z</time>
      </trkpt>
      <trkpt lat="48.10273" lon="6.79665">
        <ele>751.49</ele>
        <time>2014-01-17T13:13:41Z</time>
      </trkpt>
      <trkpt lat="48.10288" lon="6.79658">
        <ele>749.3</ele>
        <time>2014-01-17T13:13:56Z</time>
      </trkpt>
      <trkpt lat="48.1031" lon="6.7965">
        <ele>746.17</ele>
        <time>2014-01-17T13:14:17Z</time>
      </trkpt>
      <trkpt lat="48.10331" lon="6.79652">
        <ele>743.32</ele>
        <time>2014-01-17T13:14:40Z</time>
      </trkpt>
      <trkpt lat="48.10356" lon="6.7964">
        <ele>740.31</ele>
        <time>2014-01-17T13:15:03Z</time>
      </trkpt>
      <trkpt lat="48.10376" lon="6.79622">
        <ele>737.28</ele>
        <time>2014-01-17T13:15:25Z</time>
      </trkpt>
      <trkpt lat="48.10396" lon="6.79613">
        <ele>735.04</ele>
        <time>2014-01-17T13:15:41Z</time>
      </trkpt>
      <trkpt lat="48.10399" lon="6.79607">
        <ele>733.9</ele>
        <time>2014-01-17T13:15:51Z</time>
      </trkpt>
      <trkpt lat="48.10409" lon="6.7958">
        <ele>735.37</ele>
        <time>2014-01-17T13:16:12Z</time>
      </trkpt>
      <trkpt lat="48.10412" lon="6.79556">
        <ele>736.85</ele>
        <time>2014-01-17T13:16:31Z</time>
      </trkpt>
      <trkpt lat="48.10405" lon="6.79534">
        <ele>739.4</ele>
        <time>2014-01-17T13:16:54Z</time>
      </trkpt>
      <trkpt lat="48.10393" lon="6.79512">
        <ele>742.23</ele>
        <time>2014-01-17T13:17:15Z</time>
      </trkpt>
      <trkpt lat="48.1038" lon="6.79493">
        <ele>744.38</ele>
        <time>2014-01-17T13:17:36Z</time>
      </trkpt>
      <trkpt lat="48.1037" lon="6.79463">
        <ele>745.62</ele>
        <time>2014-01-17T13:17:56Z</time>
      </trkpt>
      <trkpt lat="48.10367" lon="6.79452">
        <ele>745.83</ele>
        <time>2014-01-17T13:18:15Z</time>
      </trkpt>
      <trkpt lat="48.10362" lon="6.79436">
        <ele>745.84</ele>
        <time>2014-01-17T13:18:34Z</time>
      </trkpt>
      <trkpt lat="48.10356" lon="6.79416">
        <ele>745.75</ele>
        <time>2014-01-17T13:18:53Z</time>
      </trkpt>
      <trkpt lat="48.10354" lon="6.79391">
        <ele>745.96</ele>
        <time>2014-01-17T13:19:13Z</time>
      </trkpt>
      <trkpt lat="48.10359" lon="6.79363">
        <ele>746.14</ele>
        <time>2014-01-17T13:19:33Z</time>
      </trkpt>
      <trkpt lat="48.10365" lon="6.79334">
        <ele>747.08</ele>
        <time>2014-01-17T13:19:54Z</time>
      </trkpt>
      <trkpt lat="48.10374" lon="6.79311">
        <ele>748.84</ele>
        <time>2014-01-17T13:20:15Z</time>
      </trkpt>
      <trkpt lat="48.10385" lon="6.79292">
        <ele>748.74</ele>
        <time>2014-01-17T13:20:32Z</time>
      </trkpt>
      <trkpt lat="48.10399" lon="6.79283">
        <ele>748.77</ele>
        <time>2014-01-17T13:20:53Z</time>
      </trkpt>
      <trkpt lat="48.10418" lon="6.79272">
        <ele>749.67</ele>
        <time>2014-01-17T13:21:14Z</time>
      </trkpt>
      <trkpt lat="48.1044" lon="6.7927">
        <ele>751.23</ele>
        <time>2014-01-17T13:21:36Z</time>
      </trkpt>
      <trkpt lat="48.10459" lon="6.79267">
        <ele>753</ele>
        <time>2014-01-17T13:21:57Z</time>
      </trkpt>
      <trkpt lat="48.10484" lon="6.79245">
        <ele>754.43</ele>
        <time>2014-01-17T13:22:20Z</time>
      </trkpt>
      <trkpt lat="48.1049" lon="6.79214">
        <ele>755.98</ele>
        <time>2014-01-17T13:22:39Z</time>
      </trkpt>
      <trkpt lat="48.10493" lon="6.79181">
        <ele>757.29</ele>
        <time>2014-01-17T13:22:57Z</time>
      </trkpt>
      <trkpt lat="48.10488" lon="6.79159">
        <ele>755.55</ele>
        <time>2014-01-17T13:23:17Z</time>
      </trkpt>
      <trkpt lat="48.10499" lon="6.79124">
        <ele>753.08</ele>
        <time>2014-01-17T13:23:37Z</time>
      </trkpt>
      <trkpt lat="48.10507" lon="6.79111">
        <ele>751.72</ele>
        <time>2014-01-17T13:23:58Z</time>
      </trkpt>
      <trkpt lat="48.1051" lon="6.79106">
        <ele>751.68</ele>
        <time>2014-01-17T13:24:04Z</time>
      </trkpt>
      <trkpt lat="48.10517" lon="6.79097">
        <ele>751.27</ele>
        <time>2014-01-17T13:24:35Z</time>
      </trkpt>
      <trkpt lat="48.10519" lon="6.79097">
        <ele>751.22</ele>
        <time>2014-01-17T13:24:38Z</time>
      </trkpt>
      <trkpt lat="48.10526" lon="6.79093">
        <ele>751.61</ele>
        <time>2014-01-17T13:25:01Z</time>
      </trkpt>
      <trkpt lat="48.10524" lon="6.79093">
        <ele>751.38</ele>
        <time>2014-01-17T13:25:03Z</time>
      </trkpt>
      <trkpt lat="48.10527" lon="6.7909">
        <ele>748.8</ele>
        <time>2014-01-17T13:25:24Z</time>
      </trkpt>
      <trkpt lat="48.10542" lon="6.7909">
        <ele>747.5</ele>
        <time>2014-01-17T13:25:41Z</time>
      </trkpt>
      <trkpt lat="48.10552" lon="6.79085">
        <ele>746.72</ele>
        <time>2014-01-17T13:25:51Z</time>
      </trkpt>
      <trkpt lat="48.10573" lon="6.79074">
        <ele>746.05</ele>
        <time>2014-01-17T13:26:07Z</time>
      </trkpt>
      <trkpt lat="48.10588" lon="6.79057">
        <ele>745.21</ele>
        <time>2014-01-17T13:26:20Z</time>
      </trkpt>
      <trkpt lat="48.10604" lon="6.79033">
        <ele>744.13</ele>
        <time>2014-01-17T13:26:37Z</time>
      </trkpt>
      <trkpt lat="48.10605" lon="6.79024">
        <ele>744.04</ele>
        <time>2014-01-17T13:26:43Z</time>
      </trkpt>
      <trkpt lat="48.1061" lon="6.78994">
        <ele>743.46</ele>
        <time>2014-01-17T13:27:00Z</time>
      </trkpt>
      <trkpt lat="48.10609" lon="6.78967">
        <ele>742.5</ele>
        <time>2014-01-17T13:27:19Z</time>
      </trkpt>
      <trkpt lat="48.10612" lon="6.78921">
        <ele>741.86</ele>
        <time>2014-01-17T13:27:38Z</time>
      </trkpt>
      <trkpt lat="48.10619" lon="6.7889">
        <ele>741.51</ele>
        <time>2014-01-17T13:27:57Z</time>
      </trkpt>
      <trkpt lat="48.10625" lon="6.78873">
        <ele>741.53</ele>
        <time>2014-01-17T13:28:08Z</time>
      </trkpt>
      <trkpt lat="48.10629" lon="6.78851">
        <ele>741.7</ele>
        <time>2014-01-17T13:28:22Z</time>
      </trkpt>
      <trkpt lat="48.10646" lon="6.7884">
        <ele>741.74</ele>
        <time>2014-01-17T13:28:37Z</time>
      </trkpt>
      <trkpt lat="48.10666" lon="6.78836">
        <ele>742.53</ele>
        <time>2014-01-17T13:28:53Z</time>
      </trkpt>
      <trkpt lat="48.10667" lon="6.78835">
        <ele>742.53</ele>
        <time>2014-01-17T13:28:54Z</time>
      </trkpt>
      <trkpt lat="48.10671" lon="6.78833">
        <ele>742.45</ele>
        <time>2014-01-17T13:28:58Z</time>
      </trkpt>
      <trkpt lat="48.10689" lon="6.78828">
        <ele>741.66</ele>
        <time>2014-01-17T13:29:15Z</time>
      </trkpt>
      <trkpt lat="48.10699" lon="6.78829">
        <ele>740.53</ele>
        <time>2014-01-17T13:29:27Z</time>
      </trkpt>
      <trkpt lat="48.1071" lon="6.78834">
        <ele>739.06</ele>
        <time>2014-01-17T13:29:40Z</time>
      </trkpt>
      <trkpt lat="48.10725" lon="6.78837">
        <ele>736.34</ele>
        <time>2014-01-17T13:29:59Z</time>
      </trkpt>
      <trkpt lat="48.10735" lon="6.78826">
        <ele>733.19</ele>
        <time>2014-01-17T13:30:18Z</time>
      </trkpt>
      <trkpt lat="48.10744" lon="6.78808">
        <ele>730.19</ele>
        <time>2014-01-17T13:30:35Z</time>
      </trkpt>
      <trkpt lat="48.1075" lon="6.78796">
        <ele>728.75</ele>
        <time>2014-01-17T13:30:51Z</time>
      </trkpt>
      <trkpt lat="48.10765" lon="6.7879">
        <ele>728.3</ele>
        <time>2014-01-17T13:31:11Z</time>
      </trkpt>
      <trkpt lat="48.10785" lon="6.78773">
        <ele>727.8</ele>
        <time>2014-01-17T13:31:32Z</time>
      </trkpt>
      <trkpt lat="48.10808" lon="6.78767">
        <ele>727.8</ele>
        <time>2014-01-17T13:31:51Z</time>
      </trkpt>
      <trkpt lat="48.10818" lon="6.78763">
        <ele>727.57</ele>
        <time>2014-01-17T13:32:04Z</time>
      </trkpt>
      <trkpt lat="48.10833" lon="6.78763">
        <ele>728.04</ele>
        <time>2014-01-17T13:32:22Z</time>
      </trkpt>
      <trkpt lat="48.1086" lon="6.78752">
        <ele>728.12</ele>
        <time>2014-01-17T13:32:41Z</time>
      </trkpt>
      <trkpt lat="48.10883" lon="6.7874">
        <ele>728.61</ele>
        <time>2014-01-17T13:33:01Z</time>
      </trkpt>
      <trkpt lat="48.10889" lon="6.78737">
        <ele>728.68</ele>
        <time>2014-01-17T13:33:10Z</time>
      </trkpt>
      <trkpt lat="48.10901" lon="6.7874">
        <ele>728.23</ele>
        <time>2014-01-17T13:33:27Z</time>
      </trkpt>
      <trkpt lat="48.10919" lon="6.78742">
        <ele>728.26</ele>
        <time>2014-01-17T13:33:42Z</time>
      </trkpt>
      <trkpt lat="48.10923" lon="6.78745">
        <ele>728.24</ele>
        <time>2014-01-17T13:33:47Z</time>
      </trkpt>
      <trkpt lat="48.10934" lon="6.78741">
        <ele>727.95</ele>
        <time>2014-01-17T13:34:04Z</time>
      </trkpt>
      <trkpt lat="48.10945" lon="6.78723">
        <ele>727.66</ele>
        <time>2014-01-17T13:34:39Z</time>
      </trkpt>
      <trkpt lat="48.10943" lon="6.78726">
        <ele>728.54</ele>
        <time>2014-01-17T13:35:07Z</time>
      </trkpt>
      <trkpt lat="48.10952" lon="6.78736">
        <ele>727.95</ele>
        <time>2014-01-17T13:35:24Z</time>
      </trkpt>
      <trkpt lat="48.1097" lon="6.78739">
        <ele>727.26</ele>
        <time>2014-01-17T13:35:42Z</time>
      </trkpt>
      <trkpt lat="48.10981" lon="6.78737">
        <ele>727.44</ele>
        <time>2014-01-17T13:35:55Z</time>
      </trkpt>
      <trkpt lat="48.10997" lon="6.78737">
        <ele>727.99</ele>
        <time>2014-01-17T13:36:13Z</time>
      </trkpt>
      <trkpt lat="48.11016" lon="6.78734">
        <ele>728.8</ele>
        <time>2014-01-17T13:36:29Z</time>
      </trkpt>
      <trkpt lat="48.1104" lon="6.7873">
        <ele>729.25</ele>
        <time>2014-01-17T13:36:45Z</time>
      </trkpt>
      <trkpt lat="48.11047" lon="6.78724">
        <ele>729.34</ele>
        <time>2014-01-17T13:36:49Z</time>
      </trkpt>
      <trkpt lat="48.11064" lon="6.78723">
        <ele>729.04</ele>
        <time>2014-01-17T13:37:06Z</time>
      </trkpt>
      <trkpt lat="48.11086" lon="6.78714">
        <ele>729.89</ele>
        <time>2014-01-17T13:37:28Z</time>
      </trkpt>
      <trkpt lat="48.11108" lon="6.78704">
        <ele>730.04</ele>
        <time>2014-01-17T13:37:49Z</time>
      </trkpt>
      <trkpt lat="48.11111" lon="6.78703">
        <ele>730.04</ele>
        <time>2014-01-17T13:37:51Z</time>
      </trkpt>
      <trkpt lat="48.11128" lon="6.78689">
        <ele>730.09</ele>
        <time>2014-01-17T13:38:03Z</time>
      </trkpt>
      <trkpt lat="48.11151" lon="6.78681">
        <ele>730.31</ele>
        <time>2014-01-17T13:38:24Z</time>
      </trkpt>
      <trkpt lat="48.11181" lon="6.78657">
        <ele>730.71</ele>
        <time>2014-01-17T13:38:45Z</time>
      </trkpt>
      <trkpt lat="48.11202" lon="6.78643">
        <ele>731.73</ele>
        <time>2014-01-17T13:39:04Z</time>
      </trkpt>
      <trkpt lat="48.11219" lon="6.78629">
        <ele>731.17</ele>
        <time>2014-01-17T13:39:22Z</time>
      </trkpt>
      <trkpt lat="48.11241" lon="6.78619">
        <ele>729.87</ele>
        <time>2014-01-17T13:39:40Z</time>
      </trkpt>
      <trkpt lat="48.11264" lon="6.78611">
        <ele>728.81</ele>
        <time>2014-01-17T13:39:59Z</time>
      </trkpt>
      <trkpt lat="48.11276" lon="6.78605">
        <ele>727.2</ele>
        <time>2014-01-17T13:40:11Z</time>
      </trkpt>
      <trkpt lat="48.11292" lon="6.78599">
        <ele>725.31</ele>
        <time>2014-01-17T13:40:26Z</time>
      </trkpt>
      <trkpt lat="48.11315" lon="6.78586">
        <ele>723.76</ele>
        <time>2014-01-17T13:40:42Z</time>
      </trkpt>
      <trkpt lat="48.11334" lon="6.7857">
        <ele>722.8</ele>
        <time>2014-01-17T13:40:55Z</time>
      </trkpt>
      <trkpt lat="48.11361" lon="6.78544">
        <ele>721.15</ele>
        <time>2014-01-17T13:41:13Z</time>
      </trkpt>
      <trkpt lat="48.11372" lon="6.78529">
        <ele>720.59</ele>
        <time>2014-01-17T13:41:26Z</time>
      </trkpt>
      <trkpt lat="48.11385" lon="6.78512">
        <ele>719.81</ele>
        <time>2014-01-17T13:41:42Z</time>
      </trkpt>
      <trkpt lat="48.114" lon="6.78491">
        <ele>719.08</ele>
        <time>2014-01-17T13:42:00Z</time>
      </trkpt>
      <trkpt lat="48.11427" lon="6.78455">
        <ele>718.4</ele>
        <time>2014-01-17T13:42:23Z</time>
      </trkpt>
      <trkpt lat="48.11445" lon="6.78429">
        <ele>718.53</ele>
        <time>2014-01-17T13:42:40Z</time>
      </trkpt>
      <trkpt lat="48.11449" lon="6.78423">
        <ele>718.34</ele>
        <time>2014-01-17T13:42:44Z</time>
      </trkpt>
      <trkpt lat="48.11468" lon="6.7841">
        <ele>718.46</ele>
        <time>2014-01-17T13:43:01Z</time>
      </trkpt>
      <trkpt lat="48.11483" lon="6.78403">
        <ele>718.23</ele>
        <time>2014-01-17T13:43:16Z</time>
      </trkpt>
      <trkpt lat="48.11506" lon="6.78381">
        <ele>717.56</ele>
        <time>2014-01-17T13:43:37Z</time>
      </trkpt>
      <trkpt lat="48.11521" lon="6.78367">
        <ele>716.62</ele>
        <time>2014-01-17T13:43:51Z</time>
      </trkpt>
      <trkpt lat="48.11523" lon="6.78359">
        <ele>715.55</ele>
        <time>2014-01-17T13:44:08Z</time>
      </trkpt>
      <trkpt lat="48.11526" lon="6.78356">
        <ele>715.76</ele>
        <time>2014-01-17T13:44:27Z</time>
      </trkpt>
      <trkpt lat="48.11527" lon="6.7835">
        <ele>715.54</ele>
        <time>2014-01-17T13:44:51Z</time>
      </trkpt>
      <trkpt lat="48.11527" lon="6.78346">
        <ele>715.3</ele>
        <time>2014-01-17T13:45:27Z</time>
      </trkpt>
      <trkpt lat="48.11526" lon="6.7835">
        <ele>715.37</ele>
        <time>2014-01-17T13:45:45Z</time>
      </trkpt>
      <trkpt lat="48.11527" lon="6.78352">
        <ele>715.29</ele>
        <time>2014-01-17T13:46:05Z</time>
      </trkpt>
      <trkpt lat="48.11531" lon="6.78355">
        <ele>715.18</ele>
        <time>2014-01-17T13:46:20Z</time>
      </trkpt>
      <trkpt lat="48.11539" lon="6.78356">
        <ele>715.04</ele>
        <time>2014-01-17T13:46:28Z</time>
      </trkpt>
      <trkpt lat="48.11563" lon="6.78352">
        <ele>712.25</ele>
        <time>2014-01-17T13:46:53Z</time>
      </trkpt>
      <trkpt lat="48.11573" lon="6.78344">
        <ele>710.28</ele>
        <time>2014-01-17T13:47:06Z</time>
      </trkpt>
      <trkpt lat="48.11575" lon="6.7832">
        <ele>707.91</ele>
        <time>2014-01-17T13:47:24Z</time>
      </trkpt>
      <trkpt lat="48.11574" lon="6.78307">
        <ele>706.87</ele>
        <time>2014-01-17T13:47:41Z</time>
      </trkpt>
      <trkpt lat="48.11571" lon="6.783">
        <ele>706.88</ele>
        <time>2014-01-17T13:47:53Z</time>
      </trkpt>
      <trkpt lat="48.11564" lon="6.78284">
        <ele>706.35</ele>
        <time>2014-01-17T13:48:16Z</time>
      </trkpt>
      <trkpt lat="48.11566" lon="6.78277">
        <ele>706.25</ele>
        <time>2014-01-17T13:48:36Z</time>
      </trkpt>
      <trkpt lat="48.1156" lon="6.78266">
        <ele>705.54</ele>
        <time>2014-01-17T13:48:57Z</time>
      </trkpt>
      <trkpt lat="48.11565" lon="6.78263">
        <ele>705.15</ele>
        <time>2014-01-17T13:49:16Z</time>
      </trkpt>
      <trkpt lat="48.11566" lon="6.78265">
        <ele>705.19</ele>
        <time>2014-01-17T13:49:38Z</time>
      </trkpt>
      <trkpt lat="48.11564" lon="6.78273">
        <ele>705.12</ele>
        <time>2014-01-17T13:50:02Z</time>
      </trkpt>
      <trkpt lat="48.11562" lon="6.78281">
        <ele>705.67</ele>
        <time>2014-01-17T13:50:32Z</time>
      </trkpt>
      <trkpt lat="48.11562" lon="6.78284">
        <ele>705.97</ele>
        <time>2014-01-17T13:50:58Z</time>
      </trkpt>
      <trkpt lat="48.11564" lon="6.78283">
        <ele>706.17</ele>
        <time>2014-01-17T13:51:20Z</time>
      </trkpt>
      <trkpt lat="48.11567" lon="6.78286">
        <ele>705.99</ele>
        <time>2014-01-17T13:51:42Z</time>
      </trkpt>
      <trkpt lat="48.1157" lon="6.78289">
        <ele>705.97</ele>
        <time>2014-01-17T13:51:44Z</time>
      </trkpt>
      <trkpt lat="48.11576" lon="6.78302">
        <ele>706.1</ele>
        <time>2014-01-17T13:51:58Z</time>
      </trkpt>
      <trkpt lat="48.11582" lon="6.78307">
        <ele>706.18</ele>
        <time>2014-01-17T13:52:11Z</time>
      </trkpt>
      <trkpt lat="48.11597" lon="6.78312">
        <ele>703.83</ele>
        <time>2014-01-17T13:52:25Z</time>
      </trkpt>
      <trkpt lat="48.11612" lon="6.78316">
        <ele>701.69</ele>
        <time>2014-01-17T13:52:44Z</time>
      </trkpt>
      <trkpt lat="48.11627" lon="6.78317">
        <ele>699.45</ele>
        <time>2014-01-17T13:53:02Z</time>
      </trkpt>
      <trkpt lat="48.11639" lon="6.78321">
        <ele>696.35</ele>
        <time>2014-01-17T13:53:18Z</time>
      </trkpt>
      <trkpt lat="48.11653" lon="6.78323">
        <ele>693.15</ele>
        <time>2014-01-17T13:53:33Z</time>
      </trkpt>
      <trkpt lat="48.11669" lon="6.78329">
        <ele>690.06</ele>
        <time>2014-01-17T13:53:48Z</time>
      </trkpt>
      <trkpt lat="48.11681" lon="6.78333">
        <ele>687.05</ele>
        <time>2014-01-17T13:54:03Z</time>
      </trkpt>
      <trkpt lat="48.11694" lon="6.78338">
        <ele>683.93</ele>
        <time>2014-01-17T13:54:18Z</time>
      </trkpt>
      <trkpt lat="48.11712" lon="6.78339">
        <ele>680.83</ele>
        <time>2014-01-17T13:54:35Z</time>
      </trkpt>
      <trkpt lat="48.11726" lon="6.78347">
        <ele>677.66</ele>
        <time>2014-01-17T13:54:55Z</time>
      </trkpt>
      <trkpt lat="48.11739" lon="6.78359">
        <ele>676.43</ele>
        <time>2014-01-17T13:55:10Z</time>
      </trkpt>
      <trkpt lat="48.1174" lon="6.78359">
        <ele>676.34</ele>
        <time>2014-01-17T13:55:11Z</time>
      </trkpt>
      <trkpt lat="48.11749" lon="6.7834">
        <ele>675.75</ele>
        <time>2014-01-17T13:55:25Z</time>
      </trkpt>
      <trkpt lat="48.11749" lon="6.78311">
        <ele>675.57</ele>
        <time>2014-01-17T13:55:39Z</time>
      </trkpt>
      <trkpt lat="48.11741" lon="6.7828">
        <ele>676.96</ele>
        <time>2014-01-17T13:55:57Z</time>
      </trkpt>
      <trkpt lat="48.1174" lon="6.78269">
        <ele>677.24</ele>
        <time>2014-01-17T13:56:03Z</time>
      </trkpt>
      <trkpt lat="48.11737" lon="6.78262">
        <ele>677.72</ele>
        <time>2014-01-17T13:56:07Z</time>
      </trkpt>
      <trkpt lat="48.11726" lon="6.7822">
        <ele>679.17</ele>
        <time>2014-01-17T13:56:30Z</time>
      </trkpt>
      <trkpt lat="48.11717" lon="6.78199">
        <ele>680.02</ele>
        <time>2014-01-17T13:56:43Z</time>
      </trkpt>
      <trkpt lat="48.11703" lon="6.78169">
        <ele>681.42</ele>
        <time>2014-01-17T13:57:02Z</time>
      </trkpt>
      <trkpt lat="48.11694" lon="6.78151">
        <ele>682.07</ele>
        <time>2014-01-17T13:57:15Z</time>
      </trkpt>
      <trkpt lat="48.11691" lon="6.78144">
        <ele>682.53</ele>
        <time>2014-01-17T13:57:21Z</time>
      </trkpt>
      <trkpt lat="48.11682" lon="6.78129">
        <ele>682.75</ele>
        <time>2014-01-17T13:57:32Z</time>
      </trkpt>
      <trkpt lat="48.1168" lon="6.78125">
        <ele>683.11</ele>
        <time>2014-01-17T13:57:35Z</time>
      </trkpt>
      <trkpt lat="48.11677" lon="6.78115">
        <ele>683.48</ele>
        <time>2014-01-17T13:57:42Z</time>
      </trkpt>
      <trkpt lat="48.1167" lon="6.78084">
        <ele>685.03</ele>
        <time>2014-01-17T13:58:02Z</time>
      </trkpt>
      <trkpt lat="48.11676" lon="6.78053">
        <ele>686.02</ele>
        <time>2014-01-17T13:58:21Z</time>
      </trkpt>
      <trkpt lat="48.11688" lon="6.78022">
        <ele>686.72</ele>
        <time>2014-01-17T13:58:41Z</time>
      </trkpt>
      <trkpt lat="48.11704" lon="6.77991">
        <ele>688.11</ele>
        <time>2014-01-17T13:59:02Z</time>
      </trkpt>
      <trkpt lat="48.11714" lon="6.77977">
        <ele>688.86</ele>
        <time>2014-01-17T13:59:13Z</time>
      </trkpt>
      <trkpt lat="48.1172" lon="6.7797">
        <ele>689.21</ele>
        <time>2014-01-17T13:59:19Z</time>
      </trkpt>
      <trkpt lat="48.11747" lon="6.77963">
        <ele>690.73</ele>
        <time>2014-01-17T13:59:43Z</time>
      </trkpt>
      <trkpt lat="48.11775" lon="6.7797">
        <ele>692.16</ele>
        <time>2014-01-17T14:00:07Z</time>
      </trkpt>
      <trkpt lat="48.118" lon="6.77982">
        <ele>693.7</ele>
        <time>2014-01-17T14:00:29Z</time>
      </trkpt>
      <trkpt lat="48.11817" lon="6.7799">
        <ele>694.58</ele>
        <time>2014-01-17T14:00:46Z</time>
      </trkpt>
      <trkpt lat="48.11832" lon="6.77999">
        <ele>694.98</ele>
        <time>2014-01-17T14:01:01Z</time>
      </trkpt>
      <trkpt lat="48.1185" lon="6.78013">
        <ele>696.26</ele>
        <time>2014-01-17T14:01:18Z</time>
      </trkpt>
      <trkpt lat="48.11858" lon="6.78016">
        <ele>696.78</ele>
        <time>2014-01-17T14:01:24Z</time>
      </trkpt>
      <trkpt lat="48.11883" lon="6.78027">
        <ele>697.87</ele>
        <time>2014-01-17T14:01:45Z</time>
      </trkpt>
      <trkpt lat="48.11907" lon="6.78036">
        <ele>699.11</ele>
        <time>2014-01-17T14:02:05Z</time>
      </trkpt>
      <trkpt lat="48.11911" lon="6.78038">
        <ele>699.49</ele>
        <time>2014-01-17T14:02:09Z</time>
      </trkpt>
      <trkpt lat="48.1193" lon="6.78042">
        <ele>700.65</ele>
        <time>2014-01-17T14:02:28Z</time>
      </trkpt>
      <trkpt lat="48.11948" lon="6.78043">
        <ele>701.51</ele>
        <time>2014-01-17T14:02:44Z</time>
      </trkpt>
      <trkpt lat="48.11967" lon="6.78041">
        <ele>702.14</ele>
        <time>2014-01-17T14:02:59Z</time>
      </trkpt>
      <trkpt lat="48.11987" lon="6.78049">
        <ele>703.18</ele>
        <time>2014-01-17T14:03:17Z</time>
      </trkpt>
      <trkpt lat="48.12009" lon="6.78053">
        <ele>704.22</ele>
        <time>2014-01-17T14:03:36Z</time>
      </trkpt>
      <trkpt lat="48.12036" lon="6.78054">
        <ele>705.43</ele>
        <time>2014-01-17T14:03:56Z</time>
      </trkpt>
      <trkpt lat="48.1206" lon="6.78053">
        <ele>706.95</ele>
        <time>2014-01-17T14:04:16Z</time>
      </trkpt>
      <trkpt lat="48.1208" lon="6.7803">
        <ele>708.14</ele>
        <time>2014-01-17T14:04:38Z</time>
      </trkpt>
      <trkpt lat="48.12083" lon="6.78024">
        <ele>708.57</ele>
        <time>2014-01-17T14:04:58Z</time>
      </trkpt>
      <trkpt lat="48.12088" lon="6.78028">
        <ele>708.22</ele>
        <time>2014-01-17T14:05:30Z</time>
      </trkpt>
      <trkpt lat="48.12085" lon="6.78027">
        <ele>708.08</ele>
        <time>2014-01-17T14:06:04Z</time>
      </trkpt>
      <trkpt lat="48.12087" lon="6.78023">
        <ele>708.19</ele>
        <time>2014-01-17T14:06:37Z</time>
      </trkpt>
      <trkpt lat="48.12093" lon="6.78021">
        <ele>708.04</ele>
        <time>2014-01-17T14:07:09Z</time>
      </trkpt>
      <trkpt lat="48.12094" lon="6.78022">
        <ele>708.5</ele>
        <time>2014-01-17T14:07:43Z</time>
      </trkpt>
      <trkpt lat="48.12095" lon="6.78028">
        <ele>706.33</ele>
        <time>2014-01-17T14:07:57Z</time>
      </trkpt>
      <trkpt lat="48.12093" lon="6.78043">
        <ele>703.3</ele>
        <time>2014-01-17T14:08:12Z</time>
      </trkpt>
      <trkpt lat="48.12089" lon="6.78067">
        <ele>700.11</ele>
        <time>2014-01-17T14:08:29Z</time>
      </trkpt>
      <trkpt lat="48.12091" lon="6.78087">
        <ele>698.62</ele>
        <time>2014-01-17T14:08:39Z</time>
      </trkpt>
      <trkpt lat="48.12097" lon="6.7812">
        <ele>696.7</ele>
        <time>2014-01-17T14:08:55Z</time>
      </trkpt>
      <trkpt lat="48.12096" lon="6.78129">
        <ele>695.2</ele>
        <time>2014-01-17T14:09:04Z</time>
      </trkpt>
      <trkpt lat="48.12096" lon="6.78151">
        <ele>693.04</ele>
        <time>2014-01-17T14:09:24Z</time>
      </trkpt>
      <trkpt lat="48.12097" lon="6.78175">
        <ele>690.55</ele>
        <time>2014-01-17T14:09:40Z</time>
      </trkpt>
      <trkpt lat="48.12099" lon="6.78211">
        <ele>687.88</ele>
        <time>2014-01-17T14:09:56Z</time>
      </trkpt>
      <trkpt lat="48.12102" lon="6.78238">
        <ele>685.61</ele>
        <time>2014-01-17T14:10:12Z</time>
      </trkpt>
      <trkpt lat="48.12106" lon="6.78255">
        <ele>682.59</ele>
        <time>2014-01-17T14:10:25Z</time>
      </trkpt>
      <trkpt lat="48.12113" lon="6.78282">
        <ele>679.63</ele>
        <time>2014-01-17T14:10:40Z</time>
      </trkpt>
      <trkpt lat="48.12114" lon="6.78313">
        <ele>676.82</ele>
        <time>2014-01-17T14:11:01Z</time>
      </trkpt>
      <trkpt lat="48.12117" lon="6.78338">
        <ele>674.75</ele>
        <time>2014-01-17T14:11:14Z</time>
      </trkpt>
      <trkpt lat="48.12119" lon="6.78362">
        <ele>672.47</ele>
        <time>2014-01-17T14:11:30Z</time>
      </trkpt>
      <trkpt lat="48.12121" lon="6.78389">
        <ele>670.45</ele>
        <time>2014-01-17T14:11:42Z</time>
      </trkpt>
      <trkpt lat="48.12121" lon="6.78393">
        <ele>670.27</ele>
        <time>2014-01-17T14:11:44Z</time>
      </trkpt>
      <trkpt lat="48.12119" lon="6.78408">
        <ele>668.91</ele>
        <time>2014-01-17T14:11:53Z</time>
      </trkpt>
      <trkpt lat="48.12115" lon="6.7842">
        <ele>667.21</ele>
        <time>2014-01-17T14:12:07Z</time>
      </trkpt>
      <trkpt lat="48.12113" lon="6.7843">
        <ele>665.91</ele>
        <time>2014-01-17T14:12:20Z</time>
      </trkpt>
      <trkpt lat="48.12107" lon="6.78439">
        <ele>664.12</ele>
        <time>2014-01-17T14:12:35Z</time>
      </trkpt>
      <trkpt lat="48.12104" lon="6.78452">
        <ele>662.2</ele>
        <time>2014-01-17T14:12:55Z</time>
      </trkpt>
      <trkpt lat="48.12103" lon="6.78469">
        <ele>659.17</ele>
        <time>2014-01-17T14:13:15Z</time>
      </trkpt>
      <trkpt lat="48.12103" lon="6.78476">
        <ele>658.62</ele>
        <time>2014-01-17T14:13:20Z</time>
      </trkpt>
      <trkpt lat="48.12103" lon="6.78486">
        <ele>657.47</ele>
        <time>2014-01-17T14:13:41Z</time>
      </trkpt>
      <trkpt lat="48.121" lon="6.78492">
        <ele>655.36</ele>
        <time>2014-01-17T14:14:01Z</time>
      </trkpt>
      <trkpt lat="48.12098" lon="6.785">
        <ele>653.96</ele>
        <time>2014-01-17T14:14:18Z</time>
      </trkpt>
      <trkpt lat="48.12095" lon="6.78515">
        <ele>651.25</ele>
        <time>2014-01-17T14:14:37Z</time>
      </trkpt>
      <trkpt lat="48.12093" lon="6.78516">
        <ele>650.89</ele>
        <time>2014-01-17T14:14:39Z</time>
      </trkpt>
      <trkpt lat="48.12081" lon="6.78532">
        <ele>647.67</ele>
        <time>2014-01-17T14:15:02Z</time>
      </trkpt>
      <trkpt lat="48.1208" lon="6.78544">
        <ele>646.89</ele>
        <time>2014-01-17T14:15:14Z</time>
      </trkpt>
      <trkpt lat="48.12079" lon="6.78554">
        <ele>645.3</ele>
        <time>2014-01-17T14:15:27Z</time>
      </trkpt>
      <trkpt lat="48.12081" lon="6.78572">
        <ele>644.5</ele>
        <time>2014-01-17T14:15:41Z</time>
      </trkpt>
      <trkpt lat="48.12082" lon="6.78574">
        <ele>644.44</ele>
        <time>2014-01-17T14:15:43Z</time>
      </trkpt>
      <trkpt lat="48.12092" lon="6.78592">
        <ele>642.92</ele>
        <time>2014-01-17T14:16:03Z</time>
      </trkpt>
      <trkpt lat="48.12106" lon="6.7861">
        <ele>641.14</ele>
        <time>2014-01-17T14:16:22Z</time>
      </trkpt>
      <trkpt lat="48.12122" lon="6.78631">
        <ele>638.85</ele>
        <time>2014-01-17T14:16:42Z</time>
      </trkpt>
      <trkpt lat="48.12149" lon="6.78651">
        <ele>636.17</ele>
        <time>2014-01-17T14:17:07Z</time>
      </trkpt>
      <trkpt lat="48.12171" lon="6.78678">
        <ele>633.61</ele>
        <time>2014-01-17T14:17:27Z</time>
      </trkpt>
      <trkpt lat="48.12186" lon="6.78688">
        <ele>631.62</ele>
        <time>2014-01-17T14:17:43Z</time>
      </trkpt>
      <trkpt lat="48.12203" lon="6.78704">
        <ele>629.21</ele>
        <time>2014-01-17T14:18:01Z</time>
      </trkpt>
      <trkpt lat="48.12223" lon="6.78712">
        <ele>627.2</ele>
        <time>2014-01-17T14:18:18Z</time>
      </trkpt>
      <trkpt lat="48.12244" lon="6.78736">
        <ele>625.66</ele>
        <time>2014-01-17T14:18:37Z</time>
      </trkpt>
      <trkpt lat="48.12259" lon="6.78753">
        <ele>624.43</ele>
        <time>2014-01-17T14:18:50Z</time>
      </trkpt>
      <trkpt lat="48.12281" lon="6.78771">
        <ele>621.65</ele>
        <time>2014-01-17T14:19:09Z</time>
      </trkpt>
      <trkpt lat="48.12288" lon="6.78773">
        <ele>621.41</ele>
        <time>2014-01-17T14:19:14Z</time>
      </trkpt>
      <trkpt lat="48.12309" lon="6.78779">
        <ele>620.02</ele>
        <time>2014-01-17T14:19:29Z</time>
      </trkpt>
      <trkpt lat="48.12329" lon="6.78788">
        <ele>618.1</ele>
        <time>2014-01-17T14:19:45Z</time>
      </trkpt>
      <trkpt lat="48.12336" lon="6.78796">
        <ele>617.63</ele>
        <time>2014-01-17T14:19:50Z</time>
      </trkpt>
      <trkpt lat="48.12343" lon="6.78803">
        <ele>617.25</ele>
        <time>2014-01-17T14:20:03Z</time>
      </trkpt>
      <trkpt lat="48.12358" lon="6.78798">
        <ele>616.9</ele>
        <time>2014-01-17T14:20:25Z</time>
      </trkpt>
      <trkpt lat="48.12363" lon="6.78799">
        <ele>616.92</ele>
        <time>2014-01-17T14:20:32Z</time>
      </trkpt>
      <trkpt lat="48.12368" lon="6.788">
        <ele>616.89</ele>
        <time>2014-01-17T14:20:37Z</time>
      </trkpt>
      <trkpt lat="48.12359" lon="6.78796">
        <ele>615.91</ele>
        <time>2014-01-17T14:20:54Z</time>
      </trkpt>
      <trkpt lat="48.12363" lon="6.78797">
        <ele>612.83</ele>
        <time>2014-01-17T14:21:14Z</time>
      </trkpt>
      <trkpt lat="48.12377" lon="6.78797">
        <ele>609.71</ele>
        <time>2014-01-17T14:21:30Z</time>
      </trkpt>
      <trkpt lat="48.1239" lon="6.7879">
        <ele>606.54</ele>
        <time>2014-01-17T14:21:45Z</time>
      </trkpt>
      <trkpt lat="48.12394" lon="6.78788">
        <ele>606.02</ele>
        <time>2014-01-17T14:21:48Z</time>
      </trkpt>
      <trkpt lat="48.12411" lon="6.78783">
        <ele>602.66</ele>
        <time>2014-01-17T14:22:02Z</time>
      </trkpt>
      <trkpt lat="48.12428" lon="6.78768">
        <ele>599.41</ele>
        <time>2014-01-17T14:22:20Z</time>
      </trkpt>
      <trkpt lat="48.12442" lon="6.7875">
        <ele>596.97</ele>
        <time>2014-01-17T14:22:40Z</time>
      </trkpt>
      <trkpt lat="48.12459" lon="6.78729">
        <ele>593.83</ele>
        <time>2014-01-17T14:22:59Z</time>
      </trkpt>
      <trkpt lat="48.12486" lon="6.78696">
        <ele>591.8</ele>
        <time>2014-01-17T14:23:17Z</time>
      </trkpt>
      <trkpt lat="48.12518" lon="6.78652">
        <ele>590.38</ele>
        <time>2014-01-17T14:23:35Z</time>
      </trkpt>
      <trkpt lat="48.12536" lon="6.78637">
        <ele>589.72</ele>
        <time>2014-01-17T14:23:52Z</time>
      </trkpt>
      <trkpt lat="48.12537" lon="6.78636">
        <ele>589.64</ele>
        <time>2014-01-17T14:23:54Z</time>
      </trkpt>
      <trkpt lat="48.12555" lon="6.78635">
        <ele>589.09</ele>
        <time>2014-01-17T14:24:12Z</time>
      </trkpt>
      <trkpt lat="48.12561" lon="6.78644">
        <ele>588.97</ele>
        <time>2014-01-17T14:24:17Z</time>
      </trkpt>
      <trkpt lat="48.12567" lon="6.78646">
        <ele>588.89</ele>
        <time>2014-01-17T14:24:21Z</time>
      </trkpt>
      <trkpt lat="48.126" lon="6.78678">
        <ele>589.27</ele>
        <time>2014-01-17T14:24:46Z</time>
      </trkpt>
      <trkpt lat="48.12618" lon="6.78695">
        <ele>589.02</ele>
        <time>2014-01-17T14:25:02Z</time>
      </trkpt>
      <trkpt lat="48.12631" lon="6.78725">
        <ele>590.41</ele>
        <time>2014-01-17T14:25:21Z</time>
      </trkpt>
      <trkpt lat="48.12642" lon="6.7875">
        <ele>591.84</ele>
        <time>2014-01-17T14:25:39Z</time>
      </trkpt>
      <trkpt lat="48.12651" lon="6.78768">
        <ele>592.83</ele>
        <time>2014-01-17T14:25:53Z</time>
      </trkpt>
      <trkpt lat="48.1266" lon="6.78778">
        <ele>594.22</ele>
        <time>2014-01-17T14:26:08Z</time>
      </trkpt>
      <trkpt lat="48.12661" lon="6.78781">
        <ele>594.85</ele>
        <time>2014-01-17T14:26:33Z</time>
      </trkpt>
      <trkpt lat="48.12662" lon="6.78786">
        <ele>594.89</ele>
        <time>2014-01-17T14:26:57Z</time>
      </trkpt>
      <trkpt lat="48.12661" lon="6.78787">
        <ele>594.88</ele>
        <time>2014-01-17T14:26:58Z</time>
      </trkpt>
      <trkpt lat="48.12672" lon="6.78812">
        <ele>594.38</ele>
        <time>2014-01-17T14:27:16Z</time>
      </trkpt>
      <trkpt lat="48.12685" lon="6.78835">
        <ele>594.61</ele>
        <time>2014-01-17T14:27:35Z</time>
      </trkpt>
      <trkpt lat="48.12686" lon="6.78838">
        <ele>594.83</ele>
        <time>2014-01-17T14:27:40Z</time>
      </trkpt>
      <trkpt lat="48.12688" lon="6.7884">
        <ele>594.9</ele>
        <time>2014-01-17T14:27:42Z</time>
      </trkpt>
      <trkpt lat="48.12707" lon="6.78867">
        <ele>595.45</ele>
        <time>2014-01-17T14:28:05Z</time>
      </trkpt>
      <trkpt lat="48.12728" lon="6.78892">
        <ele>596.11</ele>
        <time>2014-01-17T14:28:28Z</time>
      </trkpt>
      <trkpt lat="48.12748" lon="6.78906">
        <ele>595.52</ele>
        <time>2014-01-17T14:28:50Z</time>
      </trkpt>
      <trkpt lat="48.12769" lon="6.78919">
        <ele>594.89</ele>
        <time>2014-01-17T14:29:11Z</time>
      </trkpt>
      <trkpt lat="48.1277" lon="6.78925">
        <ele>594.47</ele>
        <time>2014-01-17T14:29:30Z</time>
      </trkpt>
      <trkpt lat="48.12775" lon="6.78925">
        <ele>594.39</ele>
        <time>2014-01-17T14:29:38Z</time>
      </trkpt>
      <trkpt lat="48.12788" lon="6.78934">
        <ele>592.11</ele>
        <time>2014-01-17T14:29:57Z</time>
      </trkpt>
      <trkpt lat="48.12789" lon="6.78935">
        <ele>591.05</ele>
        <time>2014-01-17T14:30:14Z</time>
      </trkpt>
      <trkpt lat="48.1279" lon="6.78936">
        <ele>591.14</ele>
        <time>2014-01-17T14:30:47Z</time>
      </trkpt>
      <trkpt lat="48.12798" lon="6.78944">
        <ele>590.19</ele>
        <time>2014-01-17T14:31:01Z</time>
      </trkpt>
      <trkpt lat="48.12811" lon="6.78955">
        <ele>587.12</ele>
        <time>2014-01-17T14:31:19Z</time>
      </trkpt>
      <trkpt lat="48.12822" lon="6.78962">
        <ele>584</ele>
        <time>2014-01-17T14:31:33Z</time>
      </trkpt>
      <trkpt lat="48.12836" lon="6.78968">
        <ele>581.18</ele>
        <time>2014-01-17T14:31:49Z</time>
      </trkpt>
      <trkpt lat="48.12847" lon="6.78974">
        <ele>578.6</ele>
        <time>2014-01-17T14:32:00Z</time>
      </trkpt>
      <trkpt lat="48.12869" lon="6.78981">
        <ele>575.88</ele>
        <time>2014-01-17T14:32:19Z</time>
      </trkpt>
      <trkpt lat="48.12881" lon="6.78981">
        <ele>573.94</ele>
        <time>2014-01-17T14:32:30Z</time>
      </trkpt>
      <trkpt lat="48.12889" lon="6.78981">
        <ele>572.3</ele>
        <time>2014-01-17T14:32:39Z</time>
      </trkpt>
      <trkpt lat="48.12902" lon="6.78979">
        <ele>570.52</ele>
        <time>2014-01-17T14:32:53Z</time>
      </trkpt>
      <trkpt lat="48.12924" lon="6.78977">
        <ele>568.92</ele>
        <time>2014-01-17T14:33:11Z</time>
      </trkpt>
      <trkpt lat="48.12953" lon="6.78982">
        <ele>568.47</ele>
        <time>2014-01-17T14:33:31Z</time>
      </trkpt>
      <trkpt lat="48.12972" lon="6.78988">
        <ele>567.25</ele>
        <time>2014-01-17T14:33:48Z</time>
      </trkpt>
      <trkpt lat="48.12987" lon="6.7899">
        <ele>564.07</ele>
        <time>2014-01-17T14:34:05Z</time>
      </trkpt>
      <trkpt lat="48.12999" lon="6.78986">
        <ele>560.99</ele>
        <time>2014-01-17T14:34:20Z</time>
      </trkpt>
      <trkpt lat="48.1301" lon="6.78979">
        <ele>557.94</ele>
        <time>2014-01-17T14:34:35Z</time>
      </trkpt>
      <trkpt lat="48.13023" lon="6.78971">
        <ele>554.79</ele>
        <time>2014-01-17T14:34:53Z</time>
      </trkpt>
      <trkpt lat="48.13039" lon="6.78961">
        <ele>551.91</ele>
        <time>2014-01-17T14:35:10Z</time>
      </trkpt>
      <trkpt lat="48.13052" lon="6.78947">
        <ele>548.78</ele>
        <time>2014-01-17T14:35:27Z</time>
      </trkpt>
      <trkpt lat="48.13068" lon="6.78937">
        <ele>545.77</ele>
        <time>2014-01-17T14:35:44Z</time>
      </trkpt>
      <trkpt lat="48.13081" lon="6.7893">
        <ele>542.63</ele>
        <time>2014-01-17T14:36:01Z</time>
      </trkpt>
      <trkpt lat="48.13092" lon="6.78936">
        <ele>539.6</ele>
        <time>2014-01-17T14:36:17Z</time>
      </trkpt>
      <trkpt lat="48.13096" lon="6.78939">
        <ele>538.82</ele>
        <time>2014-01-17T14:36:23Z</time>
      </trkpt>
      <trkpt lat="48.13121" lon="6.78941">
        <ele>535.72</ele>
        <time>2014-01-17T14:36:43Z</time>
      </trkpt>
      <trkpt lat="48.13146" lon="6.7895">
        <ele>534.25</ele>
        <time>2014-01-17T14:37:04Z</time>
      </trkpt>
      <trkpt lat="48.1316" lon="6.78957">
        <ele>533.66</ele>
        <time>2014-01-17T14:37:18Z</time>
      </trkpt>
      <trkpt lat="48.13164" lon="6.78958">
        <ele>533.57</ele>
        <time>2014-01-17T14:37:22Z</time>
      </trkpt>
      <trkpt lat="48.13186" lon="6.7897">
        <ele>532.79</ele>
        <time>2014-01-17T14:37:40Z</time>
      </trkpt>
      <trkpt lat="48.13205" lon="6.7898">
        <ele>531.95</ele>
        <time>2014-01-17T14:37:57Z</time>
      </trkpt>
      <trkpt lat="48.13224" lon="6.7899">
        <ele>530.58</ele>
        <time>2014-01-17T14:38:14Z</time>
      </trkpt>
      <trkpt lat="48.13244" lon="6.79003">
        <ele>529.58</ele>
        <time>2014-01-17T14:38:32Z</time>
      </trkpt>
      <trkpt lat="48.13262" lon="6.79017">
        <ele>527.86</ele>
        <time>2014-01-17T14:38:51Z</time>
      </trkpt>
      <trkpt lat="48.13282" lon="6.79032">
        <ele>524.82</ele>
        <time>2014-01-17T14:39:11Z</time>
      </trkpt>
      <trkpt lat="48.13295" lon="6.7904">
        <ele>523.78</ele>
        <time>2014-01-17T14:39:30Z</time>
      </trkpt>
      <trkpt lat="48.1331" lon="6.79062">
        <ele>523.47</ele>
        <time>2014-01-17T14:39:48Z</time>
      </trkpt>
      <trkpt lat="48.13316" lon="6.79066">
        <ele>523.28</ele>
        <time>2014-01-17T14:39:53Z</time>
      </trkpt>
      <trkpt lat="48.13332" lon="6.79073">
        <ele>523.6</ele>
        <time>2014-01-17T14:40:10Z</time>
      </trkpt>
      <trkpt lat="48.13347" lon="6.79089">
        <ele>522.37</ele>
        <time>2014-01-17T14:40:29Z</time>
      </trkpt>
      <trkpt lat="48.13366" lon="6.79098">
        <ele>521.33</ele>
        <time>2014-01-17T14:40:47Z</time>
      </trkpt>
      <trkpt lat="48.13392" lon="6.79096">
        <ele>520.25</ele>
        <time>2014-01-17T14:41:08Z</time>
      </trkpt>
      <trkpt lat="48.1342" lon="6.79089">
        <ele>519.84</ele>
        <time>2014-01-17T14:41:30Z</time>
      </trkpt>
      <trkpt lat="48.13436" lon="6.79099">
        <ele>518.21</ele>
        <time>2014-01-17T14:41:49Z</time>
      </trkpt>
      <trkpt lat="48.13431" lon="6.79136">
        <ele>516.23</ele>
        <time>2014-01-17T14:42:08Z</time>
      </trkpt>
      <trkpt lat="48.13424" lon="6.79174">
        <ele>514.06</ele>
        <time>2014-01-17T14:42:29Z</time>
      </trkpt>
      <trkpt lat="48.13427" lon="6.79214">
        <ele>511.63</ele>
        <time>2014-01-17T14:42:50Z</time>
      </trkpt>
      <trkpt lat="48.13432" lon="6.79246">
        <ele>511.81</ele>
        <time>2014-01-17T14:43:07Z</time>
      </trkpt>
      <trkpt lat="48.13427" lon="6.79251">
        <ele>511.76</ele>
        <time>2014-01-17T14:43:13Z</time>
      </trkpt>
      <trkpt lat="48.13424" lon="6.79251">
        <ele>511.65</ele>
        <time>2014-01-17T14:43:16Z</time>
      </trkpt>
      <trkpt lat="48.1342" lon="6.79249">
        <ele>511.95</ele>
        <time>2014-01-17T14:43:33Z</time>
      </trkpt>
    </trkseg>
  </trk>
</gpx>